Vink, Annemiek (2026): Master tracks in different resolutions of SONNE cruise SO317, Ensenada - Sand Diego, 2025-12-29 - 2026-02-18 [dataset]. Federal Institute for Geosciences and Natural Resources, PANGAEA, https://doi.pangaea.de/10.1594/PANGAEA.993750 (DOI registration in progress)
Always quote citation above when using data! You can download the citation in several formats below.
Published: 2026-04-21
Abstract:
Raw data acquired by position sensors on board RV SONNE during expedition SO317 were processed to receive a validated master track which can be used as reference of further expedition data. During SO317 the motion reference unit Kongsberg SeaTex AS MRU-5 combined with Kongsberg SeaTex AS Seapath 320 and two GPS receivers SAAB MGL-4 were used as navigation sensors. Data were downloaded from DAVIS SHIP data base (http://dship.bsh.de) with a resolution of 1 sec. Processing and evaluation of the data is outlined in the data processing report. Processed data are provided as a master track with 1 sec resolution derived from the position sensors' data selected by priority and a generalized track with a reduced set of the most significant positions of the master track.
Other version:
Vink, Annemiek (2026): Master track of SONNE cruise SO317 in 1 sec resolution (zipped, 193 MB) [dataset]. Federal Institute for Geosciences and Natural Resources, PANGAEA, https://doi.pangaea.de/10.1594/PANGAEA.993751
Data processing report:
Further details:
Project(s):
DAM Underway Research Data (DAM_Underway)
Coverage:
Median Latitude: 14.923240 * Median Longitude: -117.580659 * South-bound Latitude: 11.460365 * West-bound Longitude: -119.420443 * North-bound Latitude: 32.715373 * East-bound Longitude: -116.665601
Date/Time Start: 2025-12-29T16:20:02 * Date/Time End: 2026-02-18T15:59:49
Event(s):
SO317-track * Latitude Start: 32.696668 * Longitude Start: -117.155563 * Latitude End: 32.703701 * Longitude End: -117.229606 * Date/Time Start: 2025-12-29T16:00:02 * Date/Time End: 2026-02-18T15:59:49 * Campaign: SO317 (MANGAN 2025) * Basis: Sonne_2 * Method/Device: Underway cruise track measurements (CT) * Comment: Ensenada - Sand Diego
Comment:
This dataset contains the master track in 10 min resolution, for other resolutions please see "Other version" references.
Parameter(s):
License:
Creative Commons Attribution 4.0 International (CC-BY-4.0)
Status:
Curation Level: Enhanced curation (CurationLevelC)
Size:
14686 data points
Data
| 1 Date/Time | 2 Latitude | 3 Longitude | 4 Speed [kn] | 5 Course [deg] |
|---|---|---|---|---|
| 2025-12-29T16:20 | 32.69667 | -117.15556 | 0.000 | 0.0 |
| 2025-12-29T16:30 | 32.69667 | -117.15556 | 0.000 | 180.0 |
| 2025-12-29T16:40 | 32.69667 | -117.15556 | 0.000 | 180.0 |
| 2025-12-29T16:50 | 32.69667 | -117.15556 | 0.000 | 180.0 |
| 2025-12-29T17:00 | 32.69667 | -117.15556 | 0.000 | 180.0 |
| 2025-12-29T17:10 | 32.69667 | -117.15556 | 0.000 | 180.0 |
| 2025-12-29T17:20 | 32.69667 | -117.15556 | 0.000 | 180.0 |
| 2025-12-29T17:30 | 32.69667 | -117.15556 | 0.000 | 180.0 |
| 2025-12-29T17:40 | 32.69667 | -117.15556 | 0.000 | 180.0 |
| 2025-12-29T17:50 | 32.69667 | -117.15556 | 0.000 | 180.0 |
| 2025-12-29T18:00 | 32.69667 | -117.15556 | 0.000 | 180.0 |
| 2025-12-29T18:10 | 32.69667 | -117.15556 | 0.000 | 180.0 |
| 2025-12-29T18:20 | 32.69667 | -117.15556 | 0.000 | 180.0 |
| 2025-12-29T18:30 | 32.69667 | -117.15556 | 0.000 | 0.0 |
| 2025-12-29T18:40 | 32.69667 | -117.15556 | 0.000 | 180.0 |
| 2025-12-29T18:50 | 32.69667 | -117.15556 | 0.000 | 180.0 |
| 2025-12-29T19:00 | 32.69667 | -117.15556 | 0.000 | 180.0 |
| 2025-12-29T19:10 | 32.69667 | -117.15556 | 0.000 | 180.0 |
| 2025-12-29T19:20 | 32.69667 | -117.15556 | 0.000 | 180.0 |
| 2025-12-29T19:30 | 32.69667 | -117.15556 | 0.000 | 180.0 |
| 2025-12-29T19:40 | 32.69667 | -117.15556 | 0.000 | 180.0 |
| 2025-12-29T19:50 | 32.69667 | -117.15556 | 0.000 | 180.0 |
| 2025-12-29T20:00 | 32.69667 | -117.15556 | 0.000 | 180.0 |
| 2025-12-29T20:10 | 32.69667 | -117.15556 | 0.000 | 180.0 |
| 2025-12-29T20:20 | 32.69667 | -117.15556 | 0.000 | 180.0 |
| 2025-12-29T20:30 | 32.69667 | -117.15556 | 0.000 | 0.0 |
| 2025-12-29T20:40 | 32.69667 | -117.15556 | 0.000 | 180.0 |
| 2025-12-29T20:50 | 32.69667 | -117.15556 | 0.000 | 180.0 |
| 2025-12-29T21:00 | 32.69667 | -117.15556 | 0.000 | 0.0 |
| 2025-12-29T21:10 | 32.69667 | -117.15556 | 0.000 | 180.0 |
| 2025-12-29T21:20 | 32.69667 | -117.15556 | 0.000 | 180.0 |
| 2025-12-29T21:30 | 32.69667 | -117.15556 | 0.000 | 180.0 |
| 2025-12-29T21:40 | 32.69667 | -117.15556 | 0.000 | 180.0 |
| 2025-12-29T21:50 | 32.69667 | -117.15556 | 0.000 | 180.0 |
| 2025-12-29T22:00 | 32.69667 | -117.15556 | 0.000 | 180.0 |
| 2025-12-29T22:10 | 32.69667 | -117.15556 | 0.000 | 0.0 |
| 2025-12-29T22:20 | 32.69667 | -117.15556 | 0.000 | 180.0 |
| 2025-12-29T22:30 | 32.69667 | -117.15556 | 0.000 | 180.0 |
| 2025-12-29T22:40 | 32.69667 | -117.15556 | 0.000 | 180.0 |
| 2025-12-29T22:50 | 32.69667 | -117.15556 | 0.000 | 0.0 |
| 2025-12-29T23:00 | 32.69667 | -117.15556 | 0.000 | 180.0 |
| 2025-12-29T23:10 | 32.69667 | -117.15556 | 0.000 | 180.0 |
| 2025-12-29T23:20 | 32.69667 | -117.15556 | 0.000 | 180.0 |
| 2025-12-29T23:30 | 32.69667 | -117.15556 | 0.000 | 180.0 |
| 2025-12-29T23:40 | 32.69667 | -117.15556 | 0.000 | 0.0 |
| 2025-12-29T23:50 | 32.69667 | -117.15556 | 0.000 | 180.0 |
| 2025-12-30T00:00 | 32.69667 | -117.15556 | 0.000 | 180.0 |
| 2025-12-30T00:10 | 32.69667 | -117.15556 | 0.000 | 180.0 |
| 2025-12-30T00:20 | 32.69667 | -117.15556 | 0.000 | 180.0 |
| 2025-12-30T00:30 | 32.69667 | -117.15556 | 0.000 | 0.0 |
| 2025-12-30T00:40 | 32.69667 | -117.15556 | 0.000 | 180.0 |
| 2025-12-30T00:50 | 32.69667 | -117.15556 | 0.000 | 180.0 |
| 2025-12-30T01:00 | 32.69667 | -117.15556 | 0.001 | 180.0 |
| 2025-12-30T01:10 | 32.69866 | -117.16181 | 2.026 | 290.6 |
| 2025-12-30T01:20 | 32.71537 | -117.18818 | 10.007 | 306.9 |
| 2025-12-30T01:30 | 32.71163 | -117.22116 | 10.102 | 262.4 |
| 2025-12-30T01:40 | 32.68604 | -117.23071 | 9.636 | 197.5 |
| 2025-12-30T01:50 | 32.66417 | -117.22795 | 7.900 | 173.9 |
| 2025-12-30T02:00 | 32.64429 | -117.22498 | 7.196 | 172.8 |
| 2025-12-30T02:10 | 32.62024 | -117.23077 | 8.811 | 191.5 |
| 2025-12-30T02:20 | 32.61200 | -117.26327 | 10.309 | 253.3 |
| 2025-12-30T02:30 | 32.60522 | -117.29537 | 10.056 | 256.0 |
| 2025-12-30T02:40 | 32.59903 | -117.32524 | 9.347 | 256.3 |
| 2025-12-30T02:50 | 32.59933 | -117.34961 | 7.410 | 270.8 |
| 2025-12-30T03:00 | 32.60063 | -117.37168 | 6.725 | 274.0 |
| 2025-12-30T03:10 | 32.60200 | -117.39337 | 6.609 | 274.2 |
| 2025-12-30T03:20 | 32.60366 | -117.41541 | 6.727 | 275.1 |
| 2025-12-30T03:30 | 32.60532 | -117.43760 | 6.770 | 275.1 |
| 2025-12-30T03:40 | 32.60700 | -117.45962 | 6.720 | 275.2 |
| 2025-12-30T03:50 | 32.60746 | -117.48161 | 6.687 | 271.4 |
| 2025-12-30T04:00 | 32.60137 | -117.50182 | 6.518 | 250.4 |
| 2025-12-30T04:10 | 32.59162 | -117.52062 | 6.704 | 238.5 |
| 2025-12-30T04:20 | 32.58162 | -117.53931 | 6.721 | 237.7 |
| 2025-12-30T04:30 | 32.57156 | -117.55798 | 6.730 | 237.5 |
| 2025-12-30T04:40 | 32.56157 | -117.57677 | 6.743 | 237.9 |
| 2025-12-30T04:50 | 32.54660 | -117.58737 | 6.269 | 211.0 |
| 2025-12-30T05:00 | 32.52872 | -117.59444 | 6.771 | 198.5 |
| 2025-12-30T05:10 | 32.51086 | -117.60141 | 6.756 | 198.3 |
| 2025-12-30T05:20 | 32.49376 | -117.60797 | 6.457 | 198.0 |
| 2025-12-30T05:30 | 32.47761 | -117.61428 | 6.109 | 198.3 |
| 2025-12-30T05:40 | 32.46158 | -117.62058 | 6.067 | 198.4 |
| 2025-12-30T05:50 | 32.44522 | -117.62694 | 6.182 | 198.2 |
| 2025-12-30T06:00 | 32.42773 | -117.63054 | 6.376 | 189.9 |
| 2025-12-30T06:10 | 32.41025 | -117.63008 | 6.277 | 178.7 |
| 2025-12-30T06:20 | 32.39292 | -117.62469 | 6.435 | 165.2 |
| 2025-12-30T06:30 | 32.37581 | -117.61919 | 6.371 | 164.7 |
| 2025-12-30T06:40 | 32.35855 | -117.61383 | 6.407 | 165.2 |
| 2025-12-30T06:50 | 32.34117 | -117.60839 | 6.457 | 165.1 |
| 2025-12-30T07:00 | 32.32381 | -117.60289 | 6.456 | 165.0 |
| 2025-12-30T07:10 | 32.30645 | -117.59742 | 6.453 | 165.0 |
| 2025-12-30T07:20 | 32.28903 | -117.59193 | 6.475 | 165.0 |
| 2025-12-30T07:30 | 32.27647 | -117.57946 | 5.899 | 139.9 |
| 2025-12-30T07:40 | 32.26547 | -117.56199 | 6.634 | 126.5 |
| 2025-12-30T07:50 | 32.25473 | -117.54438 | 6.614 | 125.7 |
| 2025-12-30T08:00 | 32.24409 | -117.52712 | 6.506 | 125.9 |
| 2025-12-30T08:10 | 32.23359 | -117.51001 | 6.440 | 125.8 |
| 2025-12-30T08:20 | 32.22298 | -117.49280 | 6.489 | 126.0 |
| 2025-12-30T08:30 | 32.21232 | -117.47526 | 6.581 | 125.5 |
| 2025-12-30T08:40 | 32.20141 | -117.45756 | 6.676 | 125.9 |
| 2025-12-30T08:50 | 32.19044 | -117.43969 | 6.731 | 125.8 |
| 2025-12-30T09:00 | 32.17948 | -117.42182 | 6.724 | 125.8 |
| 2025-12-30T09:10 | 32.16864 | -117.40411 | 6.666 | 125.8 |
| 2025-12-30T09:20 | 32.15778 | -117.38646 | 6.651 | 125.9 |
| 2025-12-30T09:30 | 32.14699 | -117.36860 | 6.692 | 125.4 |
| 2025-12-30T09:40 | 32.13602 | -117.35095 | 6.678 | 126.1 |
| 2025-12-30T09:50 | 32.12514 | -117.33321 | 6.682 | 125.8 |
| 2025-12-30T10:00 | 32.11413 | -117.31527 | 6.759 | 125.8 |
| 2025-12-30T10:10 | 32.10308 | -117.29729 | 6.777 | 125.8 |
| 2025-12-30T10:20 | 32.09200 | -117.27925 | 6.799 | 125.8 |
| 2025-12-30T10:30 | 32.08087 | -117.26113 | 6.830 | 125.8 |
| 2025-12-30T10:40 | 32.06966 | -117.24298 | 6.855 | 126.0 |
| 2025-12-30T10:50 | 32.05847 | -117.22469 | 6.884 | 125.7 |
| 2025-12-30T11:00 | 32.04728 | -117.20643 | 6.880 | 125.7 |
| 2025-12-30T11:10 | 32.03613 | -117.18832 | 6.836 | 125.9 |
| 2025-12-30T11:20 | 32.02527 | -117.17056 | 6.685 | 125.7 |
| 2025-12-30T11:30 | 32.01430 | -117.15284 | 6.700 | 126.0 |
| 2025-12-30T11:40 | 32.00335 | -117.13502 | 6.723 | 125.8 |
| 2025-12-30T11:50 | 31.99397 | -117.11621 | 6.667 | 120.3 |
| 2025-12-30T12:00 | 31.98708 | -117.09587 | 6.697 | 111.7 |
| 2025-12-30T12:10 | 31.98038 | -117.07551 | 6.679 | 111.1 |
| 2025-12-30T12:20 | 31.97371 | -117.05530 | 6.632 | 111.2 |
| 2025-12-30T12:30 | 31.96702 | -117.03538 | 6.554 | 111.5 |
| 2025-12-30T12:40 | 31.96057 | -117.01590 | 6.397 | 111.2 |
| 2025-12-30T12:50 | 31.95426 | -116.99700 | 6.212 | 111.4 |
| 2025-12-30T13:00 | 31.94798 | -116.97800 | 6.238 | 111.2 |
| 2025-12-30T13:10 | 31.94171 | -116.95878 | 6.300 | 110.9 |
| 2025-12-30T13:20 | 31.93516 | -116.93937 | 6.391 | 111.6 |
| 2025-12-30T13:30 | 31.92853 | -116.91962 | 6.499 | 111.5 |
| 2025-12-30T13:40 | 31.92180 | -116.89936 | 6.659 | 111.3 |
| 2025-12-30T13:50 | 31.91522 | -116.87926 | 6.595 | 111.0 |
| 2025-12-30T14:00 | 31.90913 | -116.86017 | 6.241 | 110.5 |
| 2025-12-30T14:10 | 31.90255 | -116.84074 | 6.402 | 111.6 |
| 2025-12-30T14:20 | 31.89589 | -116.82106 | 6.486 | 111.6 |
| 2025-12-30T14:30 | 31.88963 | -116.80195 | 6.271 | 111.0 |
| 2025-12-30T14:40 | 31.88315 | -116.78289 | 6.285 | 111.7 |
| 2025-12-30T14:50 | 31.87312 | -116.76594 | 6.318 | 124.7 |
| 2025-12-30T15:00 | 31.86298 | -116.74931 | 6.264 | 125.5 |
| 2025-12-30T15:10 | 31.85277 | -116.73285 | 6.235 | 126.0 |
| 2025-12-30T15:20 | 31.84298 | -116.71711 | 5.969 | 126.1 |
| 2025-12-30T15:30 | 31.83176 | -116.70258 | 6.006 | 132.1 |
| 2025-12-30T15:40 | 31.81692 | -116.69117 | 6.372 | 146.7 |
| 2025-12-30T15:50 | 31.80219 | -116.67940 | 6.403 | 145.7 |
| 2025-12-30T16:00 | 31.79630 | -116.66772 | 4.160 | 120.6 |
| 2025-12-30T16:10 | 31.79609 | -116.66917 | 0.450 | 260.3 |
| 2025-12-30T16:20 | 31.79628 | -116.67028 | 0.348 | 281.6 |
| 2025-12-30T16:30 | 31.79709 | -116.67045 | 0.293 | 349.8 |
| 2025-12-30T16:40 | 31.79728 | -116.67035 | 0.077 | 23.1 |
| 2025-12-30T16:50 | 31.79754 | -116.66973 | 0.212 | 64.3 |
| 2025-12-30T17:00 | 31.79781 | -116.66952 | 0.116 | 33.8 |
| 2025-12-30T17:10 | 31.79794 | -116.66906 | 0.148 | 71.1 |
| 2025-12-30T17:20 | 31.79733 | -116.66953 | 0.261 | 213.4 |
| 2025-12-30T17:30 | 31.79710 | -116.66950 | 0.086 | 173.0 |
| 2025-12-30T17:40 | 31.79749 | -116.66902 | 0.203 | 46.0 |
| 2025-12-30T17:50 | 31.79787 | -116.66833 | 0.254 | 57.2 |
| 2025-12-30T18:00 | 31.79803 | -116.66748 | 0.265 | 77.7 |
| 2025-12-30T18:10 | 31.79798 | -116.66622 | 0.387 | 92.4 |
| 2025-12-30T18:20 | 31.79827 | -116.66570 | 0.188 | 57.1 |
| 2025-12-30T18:30 | 31.79826 | -116.66565 | 0.016 | 101.9 |
| 2025-12-30T18:40 | 31.79828 | -116.66566 | 0.009 | 336.9 |
| 2025-12-30T18:50 | 31.79821 | -116.66564 | 0.025 | 166.4 |
| 2025-12-30T19:00 | 31.79821 | -116.66566 | 0.005 | 238.0 |
| 2025-12-30T19:10 | 31.79826 | -116.66560 | 0.026 | 43.6 |
| 2025-12-30T19:20 | 31.79833 | -116.66566 | 0.031 | 323.4 |
| 2025-12-30T19:30 | 31.79833 | -116.66570 | 0.012 | 273.5 |
| 2025-12-30T19:40 | 31.79828 | -116.66569 | 0.017 | 166.4 |
| 2025-12-30T19:50 | 31.79821 | -116.66564 | 0.029 | 151.9 |
| 2025-12-30T20:00 | 31.79820 | -116.66567 | 0.011 | 252.8 |
| 2025-12-30T20:10 | 31.79831 | -116.66568 | 0.038 | 357.7 |
| 2025-12-30T20:20 | 31.79828 | -116.66573 | 0.018 | 239.2 |
| 2025-12-30T20:30 | 31.79821 | -116.66566 | 0.034 | 142.2 |
| 2025-12-30T20:40 | 31.79832 | -116.66566 | 0.041 | 1.3 |
| 2025-12-30T20:50 | 31.79829 | -116.66567 | 0.013 | 198.1 |
| 2025-12-30T21:00 | 31.79827 | -116.66560 | 0.021 | 101.8 |
| 2025-12-30T21:10 | 31.79832 | -116.66564 | 0.021 | 330.6 |
| 2025-12-30T21:20 | 31.79830 | -116.66562 | 0.011 | 147.0 |
| 2025-12-30T21:30 | 31.79830 | -116.66570 | 0.026 | 268.4 |
| 2025-12-30T21:40 | 31.79833 | -116.66569 | 0.013 | 16.8 |
| 2025-12-30T21:50 | 31.79828 | -116.66566 | 0.020 | 151.3 |
| 2025-12-30T22:00 | 31.79822 | -116.66563 | 0.022 | 154.0 |
| 2025-12-30T22:10 | 31.79831 | -116.66570 | 0.039 | 325.4 |
| 2025-12-30T22:20 | 31.79824 | -116.66565 | 0.031 | 151.2 |
| 2025-12-30T22:30 | 31.79823 | -116.66564 | 0.005 | 111.3 |
| 2025-12-30T22:40 | 31.79828 | -116.66560 | 0.018 | 32.4 |
| 2025-12-30T22:50 | 31.79827 | -116.66564 | 0.011 | 260.2 |
| 2025-12-30T23:00 | 31.79822 | -116.66564 | 0.017 | 186.1 |
| 2025-12-30T23:10 | 31.79828 | -116.66566 | 0.019 | 346.2 |
| 2025-12-30T23:20 | 31.79822 | -116.66570 | 0.024 | 212.8 |
| 2025-12-30T23:30 | 31.79826 | -116.66567 | 0.020 | 34.5 |
| 2025-12-30T23:40 | 31.79829 | -116.66561 | 0.020 | 58.3 |
| 2025-12-30T23:50 | 31.79830 | -116.66562 | 0.003 | 315.1 |
| 2025-12-31T00:00 | 31.79832 | -116.66567 | 0.016 | 292.1 |
| 2025-12-31T00:10 | 31.79823 | -116.66562 | 0.036 | 154.6 |
| 2025-12-31T00:20 | 31.79826 | -116.66567 | 0.019 | 303.1 |
| 2025-12-31T00:30 | 31.79826 | -116.66566 | 0.002 | 29.7 |
| 2025-12-31T00:40 | 31.79824 | -116.66572 | 0.020 | 249.0 |
| 2025-12-31T00:50 | 31.79828 | -116.66573 | 0.013 | 353.2 |
| 2025-12-31T01:00 | 31.79577 | -116.67677 | 3.504 | 255.1 |
| 2025-12-31T01:10 | 31.78787 | -116.70809 | 10.013 | 253.6 |
| 2025-12-31T01:20 | 31.77921 | -116.74124 | 10.633 | 253.0 |
| 2025-12-31T01:30 | 31.77147 | -116.77441 | 10.546 | 254.7 |
| 2025-12-31T01:40 | 31.75501 | -116.80191 | 10.299 | 235.0 |
| 2025-12-31T01:50 | 31.73431 | -116.82628 | 10.543 | 225.2 |
| 2025-12-31T02:00 | 31.70828 | -116.83948 | 10.187 | 203.4 |
| 2025-12-31T02:10 | 31.68001 | -116.84937 | 10.593 | 196.7 |
| 2025-12-31T02:20 | 31.65201 | -116.85960 | 10.532 | 197.4 |
| 2025-12-31T02:30 | 31.62374 | -116.86976 | 10.620 | 197.1 |
| 2025-12-31T02:40 | 31.59526 | -116.88009 | 10.706 | 197.2 |
| 2025-12-31T02:50 | 31.56693 | -116.89039 | 10.653 | 197.3 |
| 2025-12-31T03:00 | 31.53976 | -116.90019 | 10.209 | 197.2 |
| 2025-12-31T03:10 | 31.51255 | -116.91011 | 10.233 | 197.3 |
| 2025-12-31T03:20 | 31.48466 | -116.92016 | 10.481 | 197.2 |
| 2025-12-31T03:30 | 31.45616 | -116.92955 | 10.632 | 195.8 |
| 2025-12-31T03:40 | 31.42791 | -116.93668 | 10.376 | 192.2 |
| 2025-12-31T03:50 | 31.39945 | -116.94365 | 10.439 | 191.9 |
| 2025-12-31T04:00 | 31.37099 | -116.95065 | 10.444 | 191.9 |
| 2025-12-31T04:10 | 31.34277 | -116.95754 | 10.351 | 191.8 |
| 2025-12-31T04:20 | 31.31462 | -116.96449 | 10.332 | 192.0 |
| 2025-12-31T04:30 | 31.28672 | -116.97139 | 10.241 | 192.0 |
| 2025-12-31T04:40 | 31.25853 | -116.97830 | 10.341 | 191.9 |
| 2025-12-31T04:50 | 31.23036 | -116.98526 | 10.338 | 192.0 |
| 2025-12-31T05:00 | 31.20123 | -116.99245 | 10.689 | 192.0 |
| 2025-12-31T05:10 | 31.17141 | -116.99977 | 10.944 | 191.9 |
| 2025-12-31T05:20 | 31.14142 | -117.00713 | 11.001 | 191.9 |
| 2025-12-31T05:30 | 31.11179 | -117.01443 | 10.876 | 192.0 |
| 2025-12-31T05:40 | 31.08210 | -117.02176 | 10.894 | 192.0 |
| 2025-12-31T05:50 | 31.05242 | -117.02895 | 10.886 | 191.8 |
| 2025-12-31T06:00 | 31.02316 | -117.03617 | 10.738 | 192.0 |
| 2025-12-31T06:10 | 30.99379 | -117.04337 | 10.777 | 191.9 |
| 2025-12-31T06:20 | 30.96415 | -117.05070 | 10.880 | 192.0 |
| 2025-12-31T06:30 | 30.93400 | -117.05805 | 11.061 | 191.9 |
| 2025-12-31T06:40 | 30.90396 | -117.06544 | 11.024 | 192.0 |
| 2025-12-31T06:50 | 30.87415 | -117.07273 | 10.935 | 191.9 |
| 2025-12-31T07:00 | 30.84450 | -117.07998 | 10.880 | 191.9 |
| 2025-12-31T07:10 | 30.81480 | -117.08723 | 10.895 | 191.9 |
| 2025-12-31T07:20 | 30.78479 | -117.09463 | 11.014 | 192.0 |
| 2025-12-31T07:30 | 30.75505 | -117.10186 | 10.911 | 191.9 |
| 2025-12-31T07:40 | 30.72580 | -117.10895 | 10.727 | 191.8 |
| 2025-12-31T07:50 | 30.69642 | -117.11621 | 10.785 | 192.1 |
| 2025-12-31T08:00 | 30.66722 | -117.12341 | 10.717 | 192.0 |
| 2025-12-31T08:10 | 30.63853 | -117.13039 | 10.524 | 191.9 |
| 2025-12-31T08:20 | 30.60970 | -117.13746 | 10.580 | 192.0 |
| 2025-12-31T08:30 | 30.58088 | -117.14467 | 10.586 | 192.2 |
| 2025-12-31T08:40 | 30.55214 | -117.15218 | 10.577 | 192.7 |
| 2025-12-31T08:50 | 30.52334 | -117.15970 | 10.599 | 192.7 |
| 2025-12-31T09:00 | 30.49457 | -117.16722 | 10.588 | 192.8 |
| 2025-12-31T09:10 | 30.46570 | -117.17471 | 10.621 | 192.7 |
| 2025-12-31T09:20 | 30.43716 | -117.18211 | 10.502 | 192.7 |
| 2025-12-31T09:30 | 30.40800 | -117.18973 | 10.731 | 192.8 |
| 2025-12-31T09:40 | 30.37863 | -117.19743 | 10.811 | 192.8 |
| 2025-12-31T09:50 | 30.34918 | -117.20507 | 10.835 | 192.7 |
| 2025-12-31T10:00 | 30.31972 | -117.21272 | 10.841 | 192.7 |
| 2025-12-31T10:10 | 30.29032 | -117.22035 | 10.817 | 192.7 |
| 2025-12-31T10:20 | 30.26111 | -117.22801 | 10.755 | 192.8 |
| 2025-12-31T10:30 | 30.23193 | -117.23555 | 10.734 | 192.7 |
| 2025-12-31T10:40 | 30.20264 | -117.24316 | 10.777 | 192.7 |
| 2025-12-31T10:50 | 30.17315 | -117.25082 | 10.852 | 192.7 |
| 2025-12-31T11:00 | 30.14352 | -117.25856 | 10.906 | 192.8 |
| 2025-12-31T11:10 | 30.11362 | -117.26636 | 11.005 | 192.8 |
| 2025-12-31T11:20 | 30.08401 | -117.27405 | 10.899 | 192.7 |
| 2025-12-31T11:30 | 30.05479 | -117.28158 | 10.747 | 192.6 |
| 2025-12-31T11:40 | 30.02565 | -117.28915 | 10.725 | 192.7 |
| 2025-12-31T11:50 | 29.99661 | -117.29673 | 10.689 | 192.8 |
| 2025-12-31T12:00 | 29.96798 | -117.30419 | 10.535 | 192.8 |
| 2025-12-31T12:10 | 29.93954 | -117.31151 | 10.463 | 192.6 |
| 2025-12-31T12:20 | 29.91105 | -117.31891 | 10.485 | 192.8 |
| 2025-12-31T12:30 | 29.88235 | -117.32630 | 10.556 | 192.7 |
| 2025-12-31T12:40 | 29.85385 | -117.33371 | 10.491 | 192.8 |
| 2025-12-31T12:50 | 29.82552 | -117.34105 | 10.424 | 192.7 |
| 2025-12-31T13:00 | 29.79716 | -117.34836 | 10.432 | 192.7 |
| 2025-12-31T13:10 | 29.76888 | -117.35563 | 10.405 | 192.7 |
| 2025-12-31T13:20 | 29.74084 | -117.36291 | 10.317 | 192.8 |
| 2025-12-31T13:30 | 29.71318 | -117.37009 | 10.180 | 192.8 |
| 2025-12-31T13:40 | 29.68558 | -117.37727 | 10.160 | 192.8 |
| 2025-12-31T13:50 | 29.65782 | -117.38445 | 10.214 | 192.7 |
| 2025-12-31T14:00 | 29.63013 | -117.39158 | 10.187 | 192.7 |
| 2025-12-31T14:10 | 29.60215 | -117.39872 | 10.288 | 192.6 |
| 2025-12-31T14:20 | 29.57350 | -117.40617 | 10.546 | 192.8 |
| 2025-12-31T14:30 | 29.54462 | -117.41370 | 10.633 | 192.8 |
| 2025-12-31T14:40 | 29.51602 | -117.42104 | 10.518 | 192.7 |
| 2025-12-31T14:50 | 29.48769 | -117.42837 | 10.425 | 192.8 |
| 2025-12-31T15:00 | 29.45960 | -117.43561 | 10.335 | 192.7 |
| 2025-12-31T15:10 | 29.43136 | -117.44278 | 10.382 | 192.5 |
| 2025-12-31T15:20 | 29.40265 | -117.45025 | 10.570 | 192.8 |
| 2025-12-31T15:30 | 29.37350 | -117.45783 | 10.730 | 192.8 |
| 2025-12-31T15:40 | 29.34454 | -117.46531 | 10.656 | 192.8 |
| 2025-12-31T15:50 | 29.31589 | -117.47263 | 10.537 | 192.6 |
| 2025-12-31T16:00 | 29.28767 | -117.47996 | 10.387 | 192.8 |
| 2025-12-31T16:10 | 29.25916 | -117.48726 | 10.486 | 192.7 |
| 2025-12-31T16:20 | 29.23036 | -117.49470 | 10.598 | 192.8 |
| 2025-12-31T16:30 | 29.20071 | -117.50229 | 10.907 | 192.7 |
| 2025-12-31T16:40 | 29.17151 | -117.50988 | 10.750 | 192.8 |
| 2025-12-31T16:50 | 29.14215 | -117.51738 | 10.798 | 192.6 |
| 2025-12-31T17:00 | 29.11279 | -117.52488 | 10.798 | 192.7 |
| 2025-12-31T17:10 | 29.08403 | -117.53229 | 10.584 | 192.7 |
| 2025-12-31T17:20 | 29.05566 | -117.53963 | 10.441 | 192.8 |
| 2025-12-31T17:30 | 29.02699 | -117.54708 | 10.553 | 192.9 |
| 2025-12-31T17:40 | 28.99851 | -117.55431 | 10.475 | 192.6 |
| 2025-12-31T17:50 | 28.97013 | -117.56167 | 10.448 | 192.9 |
| 2025-12-31T18:00 | 28.94134 | -117.56900 | 10.588 | 192.6 |
| 2025-12-31T18:10 | 28.91243 | -117.57639 | 10.634 | 192.7 |
| 2025-12-31T18:20 | 28.88347 | -117.58387 | 10.658 | 192.8 |
| 2025-12-31T18:30 | 28.85484 | -117.59124 | 10.537 | 192.8 |
| 2025-12-31T18:40 | 28.82644 | -117.59848 | 10.444 | 192.7 |
| 2025-12-31T18:50 | 28.79797 | -117.60575 | 10.473 | 192.7 |
| 2025-12-31T19:00 | 28.76947 | -117.61309 | 10.486 | 192.8 |
| 2025-12-31T19:10 | 28.74102 | -117.62034 | 10.465 | 192.7 |
| 2025-12-31T19:20 | 28.71261 | -117.62764 | 10.455 | 192.8 |
| 2025-12-31T19:30 | 28.68450 | -117.63482 | 10.339 | 192.7 |
| 2025-12-31T19:40 | 28.65642 | -117.64206 | 10.336 | 192.8 |
| 2025-12-31T19:50 | 28.62814 | -117.64929 | 10.401 | 192.7 |
| 2025-12-31T20:00 | 28.59981 | -117.65652 | 10.424 | 192.7 |
| 2025-12-31T20:10 | 28.57165 | -117.66371 | 10.359 | 192.7 |
| 2025-12-31T20:20 | 28.54353 | -117.67090 | 10.345 | 192.7 |
| 2025-12-31T20:30 | 28.51499 | -117.67820 | 10.501 | 192.7 |
| 2025-12-31T20:40 | 28.48647 | -117.68553 | 10.492 | 192.8 |
| 2025-12-31T20:50 | 28.45821 | -117.69270 | 10.393 | 192.7 |
| 2025-12-31T21:00 | 28.43031 | -117.69979 | 10.261 | 192.6 |
| 2025-12-31T21:10 | 28.40227 | -117.70699 | 10.319 | 192.8 |
| 2025-12-31T21:20 | 28.37368 | -117.71429 | 10.517 | 192.7 |
| 2025-12-31T21:30 | 28.34500 | -117.72160 | 10.553 | 192.7 |
| 2025-12-31T21:40 | 28.31637 | -117.72890 | 10.533 | 192.7 |
| 2025-12-31T21:50 | 28.28776 | -117.73620 | 10.522 | 192.7 |
| 2025-12-31T22:00 | 28.25943 | -117.74348 | 10.428 | 192.8 |
| 2025-12-31T22:10 | 28.23101 | -117.75069 | 10.452 | 192.7 |
| 2025-12-31T22:20 | 28.20257 | -117.75793 | 10.459 | 192.7 |
| 2025-12-31T22:30 | 28.17404 | -117.76524 | 10.500 | 192.8 |
| 2025-12-31T22:40 | 28.14559 | -117.77242 | 10.463 | 192.6 |
| 2025-12-31T22:50 | 28.11740 | -117.77966 | 10.373 | 192.8 |
| 2025-12-31T23:00 | 28.08888 | -117.78685 | 10.485 | 192.6 |
| 2025-12-31T23:10 | 28.06054 | -117.79409 | 10.427 | 192.8 |
| 2025-12-31T23:20 | 28.03225 | -117.80128 | 10.407 | 192.7 |
| 2025-12-31T23:30 | 28.00408 | -117.80851 | 10.369 | 192.8 |
| 2025-12-31T23:40 | 27.97597 | -117.81552 | 10.331 | 192.5 |
| 2025-12-31T23:50 | 27.94787 | -117.82287 | 10.350 | 193.1 |
| 2026-01-01T00:00 | 27.91973 | -117.82997 | 10.350 | 192.6 |
| 2026-01-01T00:10 | 27.89190 | -117.83704 | 10.235 | 192.7 |
| 2026-01-01T00:20 | 27.86408 | -117.84409 | 10.233 | 192.7 |
| 2026-01-01T00:30 | 27.83674 | -117.85098 | 10.054 | 192.6 |
| 2026-01-01T00:40 | 27.80938 | -117.85796 | 10.066 | 192.8 |
| 2026-01-01T00:50 | 27.78237 | -117.86488 | 9.941 | 192.8 |
| 2026-01-01T01:00 | 27.75565 | -117.87165 | 9.829 | 192.7 |
| 2026-01-01T01:10 | 27.72928 | -117.87831 | 9.697 | 192.7 |
| 2026-01-01T01:20 | 27.70316 | -117.88492 | 9.606 | 192.7 |
| 2026-01-01T01:30 | 27.67657 | -117.89168 | 9.783 | 192.8 |
| 2026-01-01T01:40 | 27.64853 | -117.89881 | 10.318 | 192.8 |
| 2026-01-01T01:50 | 27.62068 | -117.90587 | 10.243 | 192.7 |
| 2026-01-01T02:00 | 27.59274 | -117.91293 | 10.278 | 192.7 |
| 2026-01-01T02:10 | 27.56484 | -117.91999 | 10.260 | 192.7 |
| 2026-01-01T02:20 | 27.53670 | -117.92718 | 10.358 | 192.8 |
| 2026-01-01T02:30 | 27.50856 | -117.93429 | 10.350 | 192.7 |
| 2026-01-01T02:40 | 27.48083 | -117.94132 | 10.199 | 192.7 |
| 2026-01-01T02:50 | 27.45302 | -117.94826 | 10.225 | 192.6 |
| 2026-01-01T03:00 | 27.42551 | -117.95530 | 10.121 | 192.9 |
| 2026-01-01T03:10 | 27.39775 | -117.96231 | 10.213 | 192.7 |
| 2026-01-01T03:20 | 27.36968 | -117.96948 | 10.328 | 192.8 |
| 2026-01-01T03:30 | 27.34178 | -117.97646 | 10.259 | 192.6 |
| 2026-01-01T03:40 | 27.31417 | -117.98354 | 10.160 | 192.9 |
| 2026-01-01T03:50 | 27.28658 | -117.99045 | 10.146 | 192.6 |
| 2026-01-01T04:00 | 27.25844 | -117.99754 | 10.348 | 192.7 |
| 2026-01-01T04:10 | 27.23005 | -118.00474 | 10.445 | 192.8 |
| 2026-01-01T04:20 | 27.20159 | -118.01193 | 10.469 | 192.7 |
| 2026-01-01T04:30 | 27.17338 | -118.01901 | 10.375 | 192.7 |
| 2026-01-01T04:40 | 27.14502 | -118.02615 | 10.431 | 192.7 |
| 2026-01-01T04:50 | 27.11638 | -118.03337 | 10.532 | 192.7 |
| 2026-01-01T05:00 | 27.08754 | -118.04069 | 10.610 | 192.8 |
| 2026-01-01T05:10 | 27.05857 | -118.04791 | 10.649 | 192.6 |
| 2026-01-01T05:20 | 27.02932 | -118.05539 | 10.767 | 192.9 |
| 2026-01-01T05:30 | 27.00023 | -118.06272 | 10.698 | 192.7 |
| 2026-01-01T05:40 | 26.97108 | -118.07001 | 10.718 | 192.6 |
| 2026-01-01T05:50 | 26.94187 | -118.07743 | 10.748 | 192.8 |
| 2026-01-01T06:00 | 26.91253 | -118.08481 | 10.791 | 192.7 |
| 2026-01-01T06:10 | 26.88290 | -118.09225 | 10.897 | 192.7 |
| 2026-01-01T06:20 | 26.85307 | -118.09979 | 10.972 | 192.8 |
| 2026-01-01T06:30 | 26.82322 | -118.10729 | 10.980 | 192.7 |
| 2026-01-01T06:40 | 26.79341 | -118.11475 | 10.961 | 192.7 |
| 2026-01-01T06:50 | 26.76349 | -118.12228 | 11.003 | 192.7 |
| 2026-01-01T07:00 | 26.73363 | -118.12983 | 10.986 | 192.8 |
| 2026-01-01T07:10 | 26.70344 | -118.13743 | 11.103 | 192.8 |
| 2026-01-01T07:20 | 26.67311 | -118.14499 | 11.152 | 192.6 |
| 2026-01-01T07:30 | 26.64270 | -118.15269 | 11.190 | 192.8 |
| 2026-01-01T07:40 | 26.61233 | -118.16033 | 11.170 | 192.8 |
| 2026-01-01T07:50 | 26.58191 | -118.16790 | 11.184 | 192.6 |
| 2026-01-01T08:00 | 26.55170 | -118.17552 | 11.114 | 192.8 |
| 2026-01-01T08:10 | 26.52141 | -118.18313 | 11.142 | 192.7 |
| 2026-01-01T08:20 | 26.49092 | -118.19080 | 11.214 | 192.8 |
| 2026-01-01T08:30 | 26.46030 | -118.19851 | 11.262 | 192.8 |
| 2026-01-01T08:40 | 26.42931 | -118.20626 | 11.396 | 192.7 |
| 2026-01-01T08:50 | 26.39846 | -118.21397 | 11.345 | 192.7 |
| 2026-01-01T09:00 | 26.36744 | -118.22174 | 11.408 | 192.7 |
| 2026-01-01T09:10 | 26.33629 | -118.22953 | 11.457 | 192.7 |
| 2026-01-01T09:20 | 26.30541 | -118.23729 | 11.357 | 192.8 |
| 2026-01-01T09:30 | 26.27470 | -118.24499 | 11.296 | 192.7 |
| 2026-01-01T09:40 | 26.24369 | -118.25285 | 11.410 | 192.9 |
| 2026-01-01T09:50 | 26.21272 | -118.26048 | 11.383 | 192.5 |
| 2026-01-01T10:00 | 26.18174 | -118.26824 | 11.391 | 192.7 |
| 2026-01-01T10:10 | 26.15076 | -118.27601 | 11.395 | 192.8 |
| 2026-01-01T10:20 | 26.11977 | -118.28381 | 11.403 | 192.8 |
| 2026-01-01T10:30 | 26.08868 | -118.29150 | 11.427 | 192.6 |
| 2026-01-01T10:40 | 26.05797 | -118.29927 | 11.301 | 192.9 |
| 2026-01-01T10:50 | 26.02733 | -118.30687 | 11.265 | 192.6 |
| 2026-01-01T11:00 | 25.99659 | -118.31460 | 11.306 | 192.8 |
| 2026-01-01T11:10 | 25.96592 | -118.32223 | 11.280 | 192.7 |
| 2026-01-01T11:20 | 25.93517 | -118.32994 | 11.310 | 192.8 |
| 2026-01-01T11:30 | 25.90426 | -118.33768 | 11.370 | 192.8 |
| 2026-01-01T11:40 | 25.87363 | -118.34531 | 11.260 | 192.7 |
| 2026-01-01T11:50 | 25.84301 | -118.35292 | 11.258 | 192.7 |
| 2026-01-01T12:00 | 25.81228 | -118.36058 | 11.303 | 192.7 |
| 2026-01-01T12:10 | 25.78108 | -118.36837 | 11.472 | 192.8 |
| 2026-01-01T12:20 | 25.74969 | -118.37621 | 11.546 | 192.7 |
| 2026-01-01T12:30 | 25.71849 | -118.38395 | 11.470 | 192.7 |
| 2026-01-01T12:40 | 25.68729 | -118.39172 | 11.474 | 192.7 |
| 2026-01-01T12:50 | 25.65666 | -118.39935 | 11.262 | 192.7 |
| 2026-01-01T13:00 | 25.62615 | -118.40699 | 11.225 | 192.8 |
| 2026-01-01T13:10 | 25.59570 | -118.41455 | 11.194 | 192.7 |
| 2026-01-01T13:20 | 25.56493 | -118.42225 | 11.320 | 192.8 |
| 2026-01-01T13:30 | 25.53422 | -118.42986 | 11.289 | 192.7 |
| 2026-01-01T13:40 | 25.50338 | -118.43642 | 11.266 | 190.9 |
| 2026-01-01T13:50 | 25.47224 | -118.44048 | 11.251 | 186.8 |
| 2026-01-01T14:00 | 25.44183 | -118.44425 | 10.975 | 186.4 |
| 2026-01-01T14:10 | 25.41189 | -118.44807 | 10.811 | 186.6 |
| 2026-01-01T14:20 | 25.38195 | -118.45184 | 10.812 | 186.5 |
| 2026-01-01T14:30 | 25.35166 | -118.45563 | 10.936 | 186.5 |
| 2026-01-01T14:40 | 25.32113 | -118.45952 | 11.023 | 186.6 |
| 2026-01-01T14:50 | 25.29058 | -118.46333 | 11.030 | 186.5 |
| 2026-01-01T15:00 | 25.25991 | -118.46723 | 11.071 | 186.6 |
| 2026-01-01T15:10 | 25.22934 | -118.47109 | 11.039 | 186.6 |
| 2026-01-01T15:20 | 25.19878 | -118.47486 | 11.030 | 186.4 |
| 2026-01-01T15:30 | 25.16861 | -118.47871 | 10.893 | 186.6 |
| 2026-01-01T15:40 | 25.13875 | -118.48250 | 10.784 | 186.6 |
| 2026-01-01T15:50 | 25.10892 | -118.48622 | 10.769 | 186.5 |
| 2026-01-01T16:00 | 25.07904 | -118.49004 | 10.788 | 186.6 |
| 2026-01-01T16:10 | 25.04885 | -118.49383 | 10.898 | 186.5 |
| 2026-01-01T16:20 | 25.01891 | -118.49764 | 10.811 | 186.6 |
| 2026-01-01T16:30 | 24.98843 | -118.50115 | 10.994 | 186.0 |
| 2026-01-01T16:40 | 24.95812 | -118.50417 | 10.916 | 185.2 |
| 2026-01-01T16:50 | 24.92817 | -118.50721 | 10.788 | 185.3 |
| 2026-01-01T17:00 | 24.89841 | -118.51020 | 10.721 | 185.2 |
| 2026-01-01T17:10 | 24.86865 | -118.51315 | 10.718 | 185.2 |
| 2026-01-01T17:20 | 24.83938 | -118.51605 | 10.540 | 185.2 |
| 2026-01-01T17:30 | 24.81022 | -118.51904 | 10.504 | 185.3 |
| 2026-01-01T17:40 | 24.78091 | -118.52198 | 10.556 | 185.2 |
| 2026-01-01T17:50 | 24.75177 | -118.52486 | 10.497 | 185.2 |
| 2026-01-01T18:00 | 24.72288 | -118.52779 | 10.406 | 185.3 |
| 2026-01-01T18:10 | 24.69406 | -118.53062 | 10.377 | 185.1 |
| 2026-01-01T18:20 | 24.66487 | -118.53323 | 10.503 | 184.7 |
| 2026-01-01T18:30 | 24.63555 | -118.53588 | 10.554 | 184.7 |
| 2026-01-01T18:40 | 24.60594 | -118.53854 | 10.654 | 184.7 |
| 2026-01-01T18:50 | 24.57663 | -118.54178 | 10.566 | 185.8 |
| 2026-01-01T19:00 | 24.54724 | -118.54536 | 10.608 | 186.4 |
| 2026-01-01T19:10 | 24.51796 | -118.54834 | 10.549 | 185.3 |
| 2026-01-01T19:20 | 24.48931 | -118.55121 | 10.318 | 185.2 |
| 2026-01-01T19:30 | 24.45983 | -118.55423 | 10.620 | 185.4 |
| 2026-01-01T19:40 | 24.43004 | -118.55715 | 10.726 | 185.1 |
| 2026-01-01T19:50 | 24.40080 | -118.56004 | 10.532 | 185.2 |
| 2026-01-01T20:00 | 24.37117 | -118.56306 | 10.674 | 185.3 |
| 2026-01-01T20:10 | 24.34130 | -118.56596 | 10.753 | 185.1 |
| 2026-01-01T20:20 | 24.31208 | -118.56897 | 10.526 | 185.4 |
| 2026-01-01T20:30 | 24.28274 | -118.57187 | 10.566 | 185.2 |
| 2026-01-01T20:40 | 24.25347 | -118.57480 | 10.540 | 185.2 |
| 2026-01-01T20:50 | 24.22463 | -118.57766 | 10.388 | 185.2 |
| 2026-01-01T21:00 | 24.19536 | -118.58063 | 10.544 | 185.3 |
| 2026-01-01T21:10 | 24.16662 | -118.58352 | 10.351 | 185.3 |
| 2026-01-01T21:20 | 24.13785 | -118.58642 | 10.362 | 185.3 |
| 2026-01-01T21:30 | 24.10906 | -118.58924 | 10.367 | 185.1 |
| 2026-01-01T21:40 | 24.07817 | -118.59233 | 11.124 | 185.3 |
| 2026-01-01T21:50 | 24.04931 | -118.59520 | 10.392 | 185.2 |
| 2026-01-01T22:00 | 24.02212 | -118.59791 | 9.795 | 185.2 |
| 2026-01-01T22:10 | 23.99395 | -118.60072 | 10.143 | 185.2 |
| 2026-01-01T22:20 | 23.96581 | -118.60354 | 10.133 | 185.3 |
| 2026-01-01T22:30 | 23.93774 | -118.60633 | 10.110 | 185.2 |
| 2026-01-01T22:40 | 23.91091 | -118.60902 | 9.664 | 185.3 |
| 2026-01-01T22:50 | 23.88766 | -118.61129 | 8.371 | 185.1 |
| 2026-01-01T23:00 | 23.86148 | -118.61394 | 9.429 | 185.3 |
| 2026-01-01T23:10 | 23.83272 | -118.61675 | 10.357 | 185.1 |
| 2026-01-01T23:20 | 23.80380 | -118.61961 | 10.415 | 185.2 |
| 2026-01-01T23:30 | 23.77652 | -118.62240 | 9.824 | 185.4 |
| 2026-01-01T23:40 | 23.74904 | -118.62515 | 9.896 | 185.2 |
| 2026-01-01T23:50 | 23.72092 | -118.62793 | 10.128 | 185.2 |
| 2026-01-02T00:00 | 23.69220 | -118.63082 | 10.344 | 185.3 |
| 2026-01-02T00:10 | 23.66337 | -118.63367 | 10.382 | 185.2 |
| 2026-01-02T00:20 | 23.63373 | -118.63658 | 10.673 | 185.2 |
| 2026-01-02T00:30 | 23.60369 | -118.63960 | 10.818 | 185.3 |
| 2026-01-02T00:40 | 23.57396 | -118.64256 | 10.707 | 185.2 |
| 2026-01-02T00:50 | 23.54417 | -118.64548 | 10.727 | 185.2 |
| 2026-01-02T01:00 | 23.51458 | -118.64850 | 10.657 | 185.4 |
| 2026-01-02T01:10 | 23.48471 | -118.65141 | 10.755 | 185.1 |
| 2026-01-02T01:20 | 23.45461 | -118.65436 | 10.839 | 185.2 |
| 2026-01-02T01:30 | 23.42436 | -118.65742 | 10.894 | 185.3 |
| 2026-01-02T01:40 | 23.39449 | -118.66035 | 10.758 | 185.2 |
| 2026-01-02T01:50 | 23.36580 | -118.66328 | 10.334 | 185.4 |
| 2026-01-02T02:00 | 23.33727 | -118.66607 | 10.270 | 185.2 |
| 2026-01-02T02:10 | 23.30883 | -118.66890 | 10.244 | 185.3 |
| 2026-01-02T02:20 | 23.28042 | -118.67171 | 10.229 | 185.2 |
| 2026-01-02T02:30 | 23.25185 | -118.67456 | 10.289 | 185.3 |
| 2026-01-02T02:40 | 23.22344 | -118.67733 | 10.230 | 185.2 |
| 2026-01-02T02:50 | 23.19527 | -118.68014 | 10.144 | 185.3 |
| 2026-01-02T03:00 | 23.16701 | -118.68298 | 10.178 | 185.3 |
| 2026-01-02T03:10 | 23.13921 | -118.68565 | 10.009 | 185.1 |
| 2026-01-02T03:20 | 23.11114 | -118.68846 | 10.109 | 185.3 |
| 2026-01-02T03:30 | 23.08275 | -118.69128 | 10.220 | 185.2 |
| 2026-01-02T03:40 | 23.05422 | -118.69414 | 10.274 | 185.3 |
| 2026-01-02T03:50 | 23.02572 | -118.69698 | 10.265 | 185.3 |
| 2026-01-02T04:00 | 22.99709 | -118.69978 | 10.308 | 185.2 |
| 2026-01-02T04:10 | 22.96865 | -118.70258 | 10.242 | 185.2 |
| 2026-01-02T04:20 | 22.94005 | -118.70534 | 10.294 | 185.1 |
| 2026-01-02T04:30 | 22.91167 | -118.70817 | 10.222 | 185.3 |
| 2026-01-02T04:40 | 22.88300 | -118.71104 | 10.323 | 185.3 |
| 2026-01-02T04:50 | 22.85419 | -118.71391 | 10.376 | 185.3 |
| 2026-01-02T05:00 | 22.82535 | -118.71677 | 10.386 | 185.3 |
| 2026-01-02T05:10 | 22.79687 | -118.71956 | 10.252 | 185.2 |
| 2026-01-02T05:20 | 22.76816 | -118.72239 | 10.341 | 185.2 |
| 2026-01-02T05:30 | 22.73947 | -118.72524 | 10.331 | 185.3 |
| 2026-01-02T05:40 | 22.71065 | -118.72811 | 10.375 | 185.3 |
| 2026-01-02T05:50 | 22.68189 | -118.73090 | 10.355 | 185.2 |
| 2026-01-02T06:00 | 22.65347 | -118.73376 | 10.237 | 185.3 |
| 2026-01-02T06:10 | 22.62524 | -118.73652 | 10.163 | 185.2 |
| 2026-01-02T06:20 | 22.59686 | -118.73930 | 10.216 | 185.2 |
| 2026-01-02T06:30 | 22.56857 | -118.74209 | 10.188 | 185.2 |
| 2026-01-02T06:40 | 22.54045 | -118.74487 | 10.127 | 185.3 |
| 2026-01-02T06:50 | 22.51236 | -118.74768 | 10.115 | 185.3 |
| 2026-01-02T07:00 | 22.48465 | -118.75036 | 9.977 | 185.2 |
| 2026-01-02T07:10 | 22.45691 | -118.75314 | 9.988 | 185.3 |
| 2026-01-02T07:20 | 22.42919 | -118.75589 | 9.980 | 185.3 |
| 2026-01-02T07:30 | 22.40169 | -118.75854 | 9.900 | 185.1 |
| 2026-01-02T07:40 | 22.37355 | -118.76130 | 10.132 | 185.2 |
| 2026-01-02T07:50 | 22.34549 | -118.76410 | 10.106 | 185.3 |
| 2026-01-02T08:00 | 22.31777 | -118.76684 | 9.980 | 185.2 |
| 2026-01-02T08:10 | 22.29006 | -118.76959 | 9.979 | 185.3 |
| 2026-01-02T08:20 | 22.26195 | -118.77233 | 10.120 | 185.2 |
| 2026-01-02T08:30 | 22.23375 | -118.77507 | 10.152 | 185.2 |
| 2026-01-02T08:40 | 22.20598 | -118.77784 | 10.001 | 185.3 |
| 2026-01-02T08:50 | 22.17745 | -118.78063 | 10.270 | 185.2 |
| 2026-01-02T09:00 | 22.14952 | -118.78332 | 10.056 | 185.1 |
| 2026-01-02T09:10 | 22.12149 | -118.78608 | 10.093 | 185.3 |
| 2026-01-02T09:20 | 22.09328 | -118.78898 | 10.161 | 185.5 |
| 2026-01-02T09:30 | 22.06513 | -118.79167 | 10.134 | 185.1 |
| 2026-01-02T09:40 | 22.03710 | -118.79446 | 10.092 | 185.3 |
| 2026-01-02T09:50 | 22.00897 | -118.79720 | 10.128 | 185.2 |
| 2026-01-02T10:00 | 21.98083 | -118.79994 | 10.130 | 185.2 |
| 2026-01-02T10:10 | 21.95254 | -118.80271 | 10.187 | 185.2 |
| 2026-01-02T10:20 | 21.92394 | -118.80558 | 10.300 | 185.3 |
| 2026-01-02T10:30 | 21.89554 | -118.80832 | 10.222 | 185.2 |
| 2026-01-02T10:40 | 21.86710 | -118.81109 | 10.239 | 185.2 |
| 2026-01-02T10:50 | 21.83831 | -118.81394 | 10.366 | 185.3 |
| 2026-01-02T11:00 | 21.80963 | -118.81674 | 10.326 | 185.2 |
| 2026-01-02T11:10 | 21.78099 | -118.81959 | 10.313 | 185.3 |
| 2026-01-02T11:20 | 21.75222 | -118.82241 | 10.357 | 185.2 |
| 2026-01-02T11:30 | 21.72345 | -118.82521 | 10.357 | 185.2 |
| 2026-01-02T11:40 | 21.69478 | -118.82805 | 10.325 | 185.3 |
| 2026-01-02T11:50 | 21.66598 | -118.83089 | 10.369 | 185.3 |
| 2026-01-02T12:00 | 21.63724 | -118.83367 | 10.345 | 185.2 |
| 2026-01-02T12:10 | 21.60877 | -118.83649 | 10.252 | 185.3 |
| 2026-01-02T12:20 | 21.58048 | -118.83921 | 10.182 | 185.1 |
| 2026-01-02T12:30 | 21.55241 | -118.84196 | 10.106 | 185.2 |
| 2026-01-02T12:40 | 21.52463 | -118.84473 | 10.004 | 185.3 |
| 2026-01-02T12:50 | 21.49677 | -118.84747 | 10.031 | 185.3 |
| 2026-01-02T13:00 | 21.46890 | -118.85020 | 10.034 | 185.2 |
| 2026-01-02T13:10 | 21.44091 | -118.85291 | 10.075 | 185.2 |
| 2026-01-02T13:20 | 21.41274 | -118.85568 | 10.144 | 185.3 |
| 2026-01-02T13:30 | 21.38469 | -118.85841 | 10.099 | 185.2 |
| 2026-01-02T13:40 | 21.35686 | -118.86116 | 10.019 | 185.3 |
| 2026-01-02T13:50 | 21.32929 | -118.86383 | 9.925 | 185.2 |
| 2026-01-02T14:00 | 21.30172 | -118.86650 | 9.924 | 185.2 |
| 2026-01-02T14:10 | 21.27383 | -118.86925 | 10.042 | 185.3 |
| 2026-01-02T14:20 | 21.24613 | -118.87198 | 9.971 | 185.3 |
| 2026-01-02T14:30 | 21.21777 | -118.87474 | 10.210 | 185.2 |
| 2026-01-02T14:40 | 21.18902 | -118.87755 | 10.353 | 185.2 |
| 2026-01-02T14:50 | 21.16028 | -118.88038 | 10.347 | 185.3 |
| 2026-01-02T15:00 | 21.13150 | -118.88314 | 10.358 | 185.1 |
| 2026-01-02T15:10 | 21.10253 | -118.88601 | 10.432 | 185.3 |
| 2026-01-02T15:20 | 21.07561 | -118.88861 | 9.690 | 185.2 |
| 2026-01-02T15:30 | 21.05285 | -118.89069 | 8.188 | 184.9 |
| 2026-01-02T15:40 | 21.04968 | -118.89471 | 1.770 | 229.9 |
| 2026-01-02T15:50 | 21.07051 | -118.88773 | 7.830 | 17.4 |
| 2026-01-02T16:00 | 21.06853 | -118.88494 | 1.178 | 127.2 |
| 2026-01-02T16:10 | 21.06071 | -118.88611 | 2.830 | 188.0 |
| 2026-01-02T16:20 | 21.03224 | -118.89047 | 10.310 | 188.2 |
| 2026-01-02T16:30 | 21.00316 | -118.89557 | 10.565 | 189.4 |
| 2026-01-02T16:40 | 20.97385 | -118.89861 | 10.559 | 185.6 |
| 2026-01-02T16:50 | 20.94580 | -118.90128 | 10.097 | 185.1 |
| 2026-01-02T17:00 | 20.95363 | -118.90533 | 3.122 | 334.1 |
| 2026-01-02T17:10 | 20.96439 | -118.89756 | 4.660 | 34.2 |
| 2026-01-02T17:20 | 20.96444 | -118.89750 | 0.028 | 46.7 |
| 2026-01-02T17:30 | 20.96444 | -118.89750 | 0.001 | 205.2 |
| 2026-01-02T17:40 | 20.96451 | -118.89743 | 0.035 | 41.6 |
| 2026-01-02T17:50 | 20.96449 | -118.89748 | 0.021 | 248.0 |
| 2026-01-02T18:00 | 20.96450 | -118.89752 | 0.013 | 281.4 |
| 2026-01-02T18:10 | 20.96443 | -118.89744 | 0.036 | 131.3 |
| 2026-01-02T18:20 | 20.96449 | -118.89738 | 0.028 | 41.7 |
| 2026-01-02T18:30 | 20.96445 | -118.89741 | 0.016 | 211.1 |
| 2026-01-02T18:40 | 20.96441 | -118.89744 | 0.018 | 220.0 |
| 2026-01-02T18:50 | 20.96438 | -118.89745 | 0.010 | 181.9 |
| 2026-01-02T19:00 | 20.96440 | -118.89744 | 0.005 | 35.2 |
| 2026-01-02T19:10 | 20.96442 | -118.89747 | 0.016 | 306.8 |
| 2026-01-02T19:20 | 20.96449 | -118.89745 | 0.026 | 19.5 |
| 2026-01-02T19:30 | 20.96448 | -118.89740 | 0.016 | 99.2 |
| 2026-01-02T19:40 | 20.96441 | -118.89744 | 0.028 | 207.6 |
| 2026-01-02T19:50 | 20.96440 | -118.89746 | 0.010 | 239.2 |
| 2026-01-02T20:00 | 20.96440 | -118.89748 | 0.006 | 255.1 |
| 2026-01-02T20:10 | 20.96444 | -118.89747 | 0.016 | 8.7 |
| 2026-01-02T20:20 | 20.96449 | -118.89739 | 0.032 | 58.3 |
| 2026-01-02T20:30 | 20.96449 | -118.89740 | 0.004 | 300.1 |
| 2026-01-02T20:40 | 20.96441 | -118.89740 | 0.030 | 176.8 |
| 2026-01-02T20:50 | 20.96443 | -118.89737 | 0.013 | 46.6 |
| 2026-01-02T21:00 | 20.96441 | -118.89743 | 0.021 | 250.5 |
| 2026-01-02T21:10 | 20.96444 | -118.89750 | 0.023 | 292.1 |
| 2026-01-02T21:20 | 20.96441 | -118.89741 | 0.030 | 111.9 |
| 2026-01-02T21:30 | 20.96442 | -118.89749 | 0.025 | 278.2 |
| 2026-01-02T21:40 | 20.96440 | -118.89741 | 0.026 | 101.2 |
| 2026-01-02T21:50 | 20.96449 | -118.89742 | 0.030 | 356.8 |
| 2026-01-02T22:00 | 20.96447 | -118.89739 | 0.010 | 125.9 |
| 2026-01-02T22:10 | 20.96447 | -118.89745 | 0.020 | 273.1 |
| 2026-01-02T22:20 | 20.96441 | -118.89748 | 0.023 | 202.5 |
| 2026-01-02T22:30 | 20.96445 | -118.89745 | 0.017 | 32.4 |
| 2026-01-02T22:40 | 20.96440 | -118.89748 | 0.022 | 204.8 |
| 2026-01-02T22:50 | 20.96429 | -118.89759 | 0.053 | 224.8 |
| 2026-01-02T23:00 | 20.96414 | -118.89801 | 0.152 | 249.6 |
| 2026-01-02T23:10 | 20.96429 | -118.89841 | 0.144 | 291.0 |
| 2026-01-02T23:20 | 20.96415 | -118.89805 | 0.132 | 112.6 |
| 2026-01-02T23:30 | 20.96429 | -118.89758 | 0.167 | 72.0 |
| 2026-01-02T23:40 | 20.96448 | -118.89741 | 0.089 | 40.0 |
| 2026-01-02T23:50 | 20.96445 | -118.89743 | 0.012 | 209.7 |
| 2026-01-03T00:00 | 20.96442 | -118.89741 | 0.013 | 152.9 |
| 2026-01-03T00:10 | 20.96428 | -118.89719 | 0.088 | 125.1 |
| 2026-01-03T00:20 | 20.96351 | -118.89594 | 0.505 | 123.1 |
| 2026-01-03T00:30 | 20.96273 | -118.89471 | 0.497 | 124.0 |
| 2026-01-03T00:40 | 20.96195 | -118.89348 | 0.500 | 124.0 |
| 2026-01-03T00:50 | 20.96118 | -118.89224 | 0.501 | 123.7 |
| 2026-01-03T01:00 | 20.96098 | -118.89195 | 0.121 | 124.9 |
| 2026-01-03T01:10 | 20.96097 | -118.89198 | 0.013 | 248.4 |
| 2026-01-03T01:20 | 20.96098 | -118.89200 | 0.006 | 293.7 |
| 2026-01-03T01:30 | 20.96101 | -118.89199 | 0.012 | 20.9 |
| 2026-01-03T01:40 | 20.96105 | -118.89200 | 0.015 | 337.7 |
| 2026-01-03T01:50 | 20.96106 | -118.89195 | 0.017 | 72.0 |
| 2026-01-03T02:00 | 20.96102 | -118.89199 | 0.019 | 220.3 |
| 2026-01-03T02:10 | 20.96103 | -118.89202 | 0.010 | 282.4 |
| 2026-01-03T02:20 | 20.96103 | -118.89195 | 0.022 | 82.5 |
| 2026-01-03T02:30 | 20.96102 | -118.89195 | 0.007 | 160.9 |
| 2026-01-03T02:40 | 20.96098 | -118.89198 | 0.019 | 220.9 |
| 2026-01-03T02:50 | 20.96100 | -118.89201 | 0.012 | 319.2 |
| 2026-01-03T03:00 | 20.96100 | -118.89201 | 0.001 | 193.2 |
| 2026-01-03T03:10 | 20.96098 | -118.89200 | 0.008 | 152.7 |
| 2026-01-03T03:20 | 20.96098 | -118.89198 | 0.005 | 74.2 |
| 2026-01-03T03:30 | 20.96100 | -118.89200 | 0.010 | 313.9 |
| 2026-01-03T03:40 | 20.96100 | -118.89194 | 0.021 | 91.0 |
| 2026-01-03T03:50 | 20.96100 | -118.89200 | 0.019 | 264.5 |
| 2026-01-03T04:00 | 20.96102 | -118.89195 | 0.019 | 63.9 |
| 2026-01-03T04:10 | 20.96104 | -118.89194 | 0.007 | 19.1 |
| 2026-01-03T04:20 | 20.96105 | -118.89194 | 0.004 | 5.4 |
| 2026-01-03T04:30 | 20.96101 | -118.89193 | 0.012 | 170.3 |
| 2026-01-03T04:40 | 20.96099 | -118.89199 | 0.021 | 243.7 |
| 2026-01-03T04:50 | 20.95592 | -118.89140 | 1.827 | 173.8 |
| 2026-01-03T05:00 | 20.92848 | -118.90195 | 10.460 | 199.9 |
| 2026-01-03T05:10 | 20.89928 | -118.90598 | 10.555 | 187.4 |
| 2026-01-03T05:20 | 20.87045 | -118.90869 | 10.378 | 185.1 |
| 2026-01-03T05:30 | 20.84181 | -118.91146 | 10.310 | 185.2 |
| 2026-01-03T05:40 | 20.81304 | -118.91427 | 10.356 | 185.2 |
| 2026-01-03T05:50 | 20.78422 | -118.91698 | 10.371 | 185.1 |
| 2026-01-03T06:00 | 20.75577 | -118.91981 | 10.244 | 185.3 |
| 2026-01-03T06:10 | 20.72735 | -118.92259 | 10.233 | 185.3 |
| 2026-01-03T06:20 | 20.69909 | -118.92534 | 10.172 | 185.2 |
| 2026-01-03T06:30 | 20.67099 | -118.92813 | 10.117 | 185.3 |
| 2026-01-03T06:40 | 20.64277 | -118.93085 | 10.158 | 185.2 |
| 2026-01-03T06:50 | 20.61415 | -118.93358 | 10.302 | 185.1 |
| 2026-01-03T07:00 | 20.58552 | -118.93640 | 10.307 | 185.3 |
| 2026-01-03T07:10 | 20.55714 | -118.93906 | 10.215 | 185.0 |
| 2026-01-03T07:20 | 20.52884 | -118.94196 | 10.190 | 185.5 |
| 2026-01-03T07:30 | 20.50041 | -118.94470 | 10.234 | 185.2 |
| 2026-01-03T07:40 | 20.47164 | -118.94746 | 10.355 | 185.2 |
| 2026-01-03T07:50 | 20.44291 | -118.95029 | 10.344 | 185.3 |
| 2026-01-03T08:00 | 20.41437 | -118.95297 | 10.271 | 185.1 |
| 2026-01-03T08:10 | 20.38584 | -118.95580 | 10.274 | 185.3 |
| 2026-01-03T08:20 | 20.35751 | -118.95854 | 10.198 | 185.2 |
| 2026-01-03T08:30 | 20.32951 | -118.96132 | 10.080 | 185.3 |
| 2026-01-03T08:40 | 20.30168 | -118.96400 | 10.017 | 185.2 |
| 2026-01-03T08:50 | 20.27357 | -118.96673 | 10.119 | 185.2 |
| 2026-01-03T09:00 | 20.24572 | -118.96948 | 10.026 | 185.3 |
| 2026-01-03T09:10 | 20.21794 | -118.97213 | 10.000 | 185.1 |
| 2026-01-03T09:20 | 20.19003 | -118.97484 | 10.045 | 185.2 |
| 2026-01-03T09:30 | 20.16213 | -118.97752 | 10.042 | 185.2 |
| 2026-01-03T09:40 | 20.13412 | -118.98025 | 10.083 | 185.2 |
| 2026-01-03T09:50 | 20.10608 | -118.98298 | 10.093 | 185.2 |
| 2026-01-03T10:00 | 20.07813 | -118.98570 | 10.063 | 185.3 |
| 2026-01-03T10:10 | 20.05007 | -118.98839 | 10.098 | 185.2 |
| 2026-01-03T10:20 | 20.02190 | -118.99114 | 10.140 | 185.3 |
| 2026-01-03T10:30 | 19.99376 | -118.99390 | 10.134 | 185.3 |
| 2026-01-03T10:40 | 19.96579 | -118.99658 | 10.065 | 185.2 |
| 2026-01-03T10:50 | 19.93753 | -118.99931 | 10.172 | 185.2 |
| 2026-01-03T11:00 | 19.90920 | -119.00202 | 10.196 | 185.2 |
| 2026-01-03T11:10 | 19.88127 | -119.00475 | 10.056 | 185.3 |
| 2026-01-03T11:20 | 19.85332 | -119.00749 | 10.062 | 185.3 |
| 2026-01-03T11:30 | 19.82515 | -119.01026 | 10.140 | 185.3 |
| 2026-01-03T11:40 | 19.79684 | -119.01295 | 10.189 | 185.1 |
| 2026-01-03T11:50 | 19.76865 | -119.01569 | 10.148 | 185.3 |
| 2026-01-03T12:00 | 19.74035 | -119.01838 | 10.185 | 185.1 |
| 2026-01-03T12:10 | 19.71218 | -119.02117 | 10.140 | 185.4 |
| 2026-01-03T12:20 | 19.68413 | -119.02389 | 10.096 | 185.2 |
| 2026-01-03T12:30 | 19.65621 | -119.02658 | 10.050 | 185.2 |
| 2026-01-03T12:40 | 19.62862 | -119.02916 | 9.930 | 185.1 |
| 2026-01-03T12:50 | 19.60119 | -119.03188 | 9.876 | 185.3 |
| 2026-01-03T13:00 | 19.57335 | -119.03451 | 10.017 | 185.1 |
| 2026-01-03T13:10 | 19.54531 | -119.03733 | 10.098 | 185.4 |
| 2026-01-03T13:20 | 19.51698 | -119.04002 | 10.197 | 185.2 |
| 2026-01-03T13:30 | 19.48871 | -119.04279 | 10.174 | 185.3 |
| 2026-01-03T13:40 | 19.46095 | -119.04539 | 9.992 | 185.1 |
| 2026-01-03T13:50 | 19.43318 | -119.04810 | 9.995 | 185.3 |
| 2026-01-03T14:00 | 19.40540 | -119.05080 | 10.000 | 185.3 |
| 2026-01-03T14:10 | 19.37764 | -119.05347 | 9.993 | 185.2 |
| 2026-01-03T14:20 | 19.34994 | -119.05616 | 9.968 | 185.3 |
| 2026-01-03T14:30 | 19.32253 | -119.05870 | 9.864 | 185.0 |
| 2026-01-03T14:40 | 19.29821 | -119.06109 | 8.754 | 185.3 |
| 2026-01-03T14:50 | 19.27125 | -119.06378 | 9.709 | 185.4 |
| 2026-01-03T15:00 | 19.24281 | -119.06652 | 10.234 | 185.2 |
| 2026-01-03T15:10 | 19.21434 | -119.06921 | 10.248 | 185.1 |
| 2026-01-03T15:20 | 19.18596 | -119.07199 | 10.214 | 185.3 |
| 2026-01-03T15:30 | 19.15783 | -119.07473 | 10.127 | 185.3 |
| 2026-01-03T15:40 | 19.12960 | -119.07734 | 10.158 | 185.0 |
| 2026-01-03T15:50 | 19.10466 | -119.07976 | 8.978 | 185.3 |
| 2026-01-03T16:00 | 19.07966 | -119.08220 | 8.996 | 185.3 |
| 2026-01-03T16:10 | 19.05268 | -119.08484 | 9.713 | 185.3 |
| 2026-01-03T16:20 | 19.02480 | -119.08746 | 10.034 | 185.1 |
| 2026-01-03T16:30 | 18.99723 | -119.09013 | 9.922 | 185.3 |
| 2026-01-03T16:40 | 18.96920 | -119.09286 | 10.090 | 185.3 |
| 2026-01-03T16:50 | 18.94115 | -119.09550 | 10.094 | 185.1 |
| 2026-01-03T17:00 | 18.91206 | -119.09839 | 10.474 | 185.4 |
| 2026-01-03T17:10 | 18.88290 | -119.10120 | 10.494 | 185.2 |
| 2026-01-03T17:20 | 18.85385 | -119.10396 | 10.453 | 185.2 |
| 2026-01-03T17:30 | 18.82455 | -119.10677 | 10.548 | 185.2 |
| 2026-01-03T17:40 | 18.79526 | -119.10967 | 10.544 | 185.4 |
| 2026-01-03T17:50 | 18.76585 | -119.11240 | 10.582 | 185.1 |
| 2026-01-03T18:00 | 18.73646 | -119.11524 | 10.577 | 185.3 |
| 2026-01-03T18:10 | 18.70806 | -119.11799 | 10.225 | 185.3 |
| 2026-01-03T18:20 | 18.68001 | -119.12065 | 10.092 | 185.2 |
| 2026-01-03T18:30 | 18.65196 | -119.12336 | 10.096 | 185.3 |
| 2026-01-03T18:40 | 18.62335 | -119.12612 | 10.299 | 185.3 |
| 2026-01-03T18:50 | 18.59439 | -119.12886 | 10.420 | 185.2 |
| 2026-01-03T19:00 | 18.56534 | -119.13175 | 10.460 | 185.4 |
| 2026-01-03T19:10 | 18.53637 | -119.13451 | 10.427 | 185.2 |
| 2026-01-03T19:20 | 18.50722 | -119.13731 | 10.491 | 185.2 |
| 2026-01-03T19:30 | 18.47819 | -119.14007 | 10.447 | 185.2 |
| 2026-01-03T19:40 | 18.44915 | -119.14289 | 10.453 | 185.3 |
| 2026-01-03T19:50 | 18.42015 | -119.14563 | 10.436 | 185.2 |
| 2026-01-03T20:00 | 18.39114 | -119.14842 | 10.440 | 185.2 |
| 2026-01-03T20:10 | 18.36198 | -119.15118 | 10.492 | 185.2 |
| 2026-01-03T20:20 | 18.33269 | -119.15392 | 10.540 | 185.1 |
| 2026-01-03T20:30 | 18.30345 | -119.15678 | 10.525 | 185.3 |
| 2026-01-03T20:40 | 18.27427 | -119.15964 | 10.504 | 185.3 |
| 2026-01-03T20:50 | 18.24513 | -119.16247 | 10.488 | 185.3 |
| 2026-01-03T21:00 | 18.21686 | -119.16513 | 10.174 | 185.1 |
| 2026-01-03T21:10 | 18.19037 | -119.16763 | 9.530 | 185.2 |
| 2026-01-03T21:20 | 18.16192 | -119.17042 | 10.243 | 185.4 |
| 2026-01-03T21:30 | 18.13317 | -119.17324 | 10.350 | 185.4 |
| 2026-01-03T21:40 | 18.10437 | -119.17601 | 10.362 | 185.2 |
| 2026-01-03T21:50 | 18.07534 | -119.17869 | 10.446 | 185.1 |
| 2026-01-03T22:00 | 18.04651 | -119.18148 | 10.374 | 185.3 |
| 2026-01-03T22:10 | 18.01767 | -119.18428 | 10.382 | 185.3 |
| 2026-01-03T22:20 | 17.98898 | -119.18701 | 10.325 | 185.2 |
| 2026-01-03T22:30 | 17.96132 | -119.18610 | 9.919 | 178.2 |
| 2026-01-03T22:40 | 17.93475 | -119.17670 | 10.054 | 161.3 |
| 2026-01-03T22:50 | 17.90788 | -119.16693 | 10.193 | 160.8 |
| 2026-01-03T23:00 | 17.88116 | -119.15711 | 10.153 | 160.6 |
| 2026-01-03T23:10 | 17.85447 | -119.14751 | 10.116 | 161.0 |
| 2026-01-03T23:20 | 17.82818 | -119.13797 | 9.976 | 160.8 |
| 2026-01-03T23:30 | 17.80132 | -119.12827 | 10.184 | 160.9 |
| 2026-01-03T23:40 | 17.77446 | -119.11847 | 10.198 | 160.7 |
| 2026-01-03T23:50 | 17.74754 | -119.10866 | 10.218 | 160.8 |
| 2026-01-04T00:00 | 17.72047 | -119.09892 | 10.263 | 161.0 |
| 2026-01-04T00:10 | 17.69343 | -119.08897 | 10.277 | 160.6 |
| 2026-01-04T00:20 | 17.66594 | -119.07915 | 10.411 | 161.1 |
| 2026-01-04T00:30 | 17.63855 | -119.06915 | 10.399 | 160.7 |
| 2026-01-04T00:40 | 17.61116 | -119.05929 | 10.386 | 160.9 |
| 2026-01-04T00:50 | 17.58382 | -119.04932 | 10.379 | 160.7 |
| 2026-01-04T01:00 | 17.55652 | -119.03944 | 10.355 | 160.8 |
| 2026-01-04T01:10 | 17.52919 | -119.02961 | 10.362 | 161.0 |
| 2026-01-04T01:20 | 17.50178 | -119.01964 | 10.405 | 160.8 |
| 2026-01-04T01:30 | 17.47416 | -119.00963 | 10.478 | 160.8 |
| 2026-01-04T01:40 | 17.44648 | -118.99960 | 10.502 | 160.8 |
| 2026-01-04T01:50 | 17.41882 | -118.98961 | 10.492 | 160.9 |
| 2026-01-04T02:00 | 17.39103 | -118.97949 | 10.551 | 160.7 |
| 2026-01-04T02:10 | 17.36319 | -118.96954 | 10.546 | 161.1 |
| 2026-01-04T02:20 | 17.33543 | -118.95951 | 10.530 | 160.9 |
| 2026-01-04T02:30 | 17.30790 | -118.94950 | 10.450 | 160.7 |
| 2026-01-04T02:40 | 17.28026 | -118.93947 | 10.492 | 160.8 |
| 2026-01-04T02:50 | 17.25253 | -118.92944 | 10.518 | 160.8 |
| 2026-01-04T03:00 | 17.22503 | -118.91946 | 10.439 | 160.8 |
| 2026-01-04T03:10 | 17.19778 | -118.90966 | 10.329 | 160.9 |
| 2026-01-04T03:20 | 17.17047 | -118.89975 | 10.368 | 160.8 |
| 2026-01-04T03:30 | 17.14296 | -118.88983 | 10.432 | 160.9 |
| 2026-01-04T03:40 | 17.11546 | -118.87991 | 10.429 | 160.9 |
| 2026-01-04T03:50 | 17.08788 | -118.86996 | 10.463 | 160.8 |
| 2026-01-04T04:00 | 17.05967 | -118.85971 | 10.706 | 160.8 |
| 2026-01-04T04:10 | 17.03113 | -118.84943 | 10.826 | 160.9 |
| 2026-01-04T04:20 | 17.00243 | -118.83905 | 10.889 | 160.8 |
| 2026-01-04T04:30 | 16.97364 | -118.82868 | 10.918 | 160.9 |
| 2026-01-04T04:40 | 16.94471 | -118.81822 | 10.978 | 160.8 |
| 2026-01-04T04:50 | 16.91546 | -118.80762 | 11.102 | 160.8 |
| 2026-01-04T05:00 | 16.88577 | -118.79700 | 11.253 | 161.0 |
| 2026-01-04T05:10 | 16.85687 | -118.78650 | 10.970 | 160.7 |
| 2026-01-04T05:20 | 16.82811 | -118.77621 | 10.899 | 161.0 |
| 2026-01-04T05:30 | 16.79968 | -118.76590 | 10.794 | 160.8 |
| 2026-01-04T05:40 | 16.77155 | -118.75582 | 10.661 | 160.9 |
| 2026-01-04T05:50 | 16.74432 | -118.74601 | 10.332 | 160.8 |
| 2026-01-04T06:00 | 16.71691 | -118.73610 | 10.400 | 160.8 |
| 2026-01-04T06:10 | 16.68951 | -118.72614 | 10.405 | 160.7 |
| 2026-01-04T06:20 | 16.66207 | -118.71635 | 10.397 | 161.0 |
| 2026-01-04T06:30 | 16.63467 | -118.70650 | 10.390 | 160.9 |
| 2026-01-04T06:40 | 16.60743 | -118.69661 | 10.343 | 160.7 |
| 2026-01-04T06:50 | 16.58018 | -118.68679 | 10.337 | 160.8 |
| 2026-01-04T07:00 | 16.55310 | -118.67701 | 10.275 | 160.8 |
| 2026-01-04T07:10 | 16.52580 | -118.66721 | 10.353 | 160.9 |
| 2026-01-04T07:20 | 16.49875 | -118.65753 | 10.254 | 160.9 |
| 2026-01-04T07:30 | 16.47189 | -118.64783 | 10.190 | 160.8 |
| 2026-01-04T07:40 | 16.44526 | -118.63820 | 10.108 | 160.8 |
| 2026-01-04T07:50 | 16.41863 | -118.62866 | 10.097 | 160.9 |
| 2026-01-04T08:00 | 16.39220 | -118.61911 | 10.030 | 160.8 |
| 2026-01-04T08:10 | 16.36578 | -118.60961 | 10.023 | 160.8 |
| 2026-01-04T08:20 | 16.33952 | -118.60017 | 9.960 | 160.9 |
| 2026-01-04T08:30 | 16.31255 | -118.59055 | 10.221 | 161.0 |
| 2026-01-04T08:40 | 16.28558 | -118.58079 | 10.238 | 160.7 |
| 2026-01-04T08:50 | 16.25899 | -118.57121 | 10.088 | 160.8 |
| 2026-01-04T09:00 | 16.23251 | -118.56168 | 10.046 | 160.8 |
| 2026-01-04T09:10 | 16.20653 | -118.55232 | 9.857 | 160.8 |
| 2026-01-04T09:20 | 16.18038 | -118.54296 | 9.913 | 160.9 |
| 2026-01-04T09:30 | 16.15387 | -118.53344 | 10.055 | 160.9 |
| 2026-01-04T09:40 | 16.12748 | -118.52393 | 10.014 | 160.8 |
| 2026-01-04T09:50 | 16.10151 | -118.51456 | 9.854 | 160.8 |
| 2026-01-04T10:00 | 16.07517 | -118.50508 | 9.994 | 160.8 |
| 2026-01-04T10:10 | 16.04876 | -118.49564 | 10.012 | 160.9 |
| 2026-01-04T10:20 | 16.02240 | -118.48612 | 10.004 | 160.8 |
| 2026-01-04T10:30 | 15.99632 | -118.47681 | 9.885 | 160.9 |
| 2026-01-04T10:40 | 15.96986 | -118.46732 | 10.036 | 160.9 |
| 2026-01-04T10:50 | 15.94329 | -118.45777 | 10.080 | 160.8 |
| 2026-01-04T11:00 | 15.91630 | -118.44800 | 10.244 | 160.7 |
| 2026-01-04T11:10 | 15.88923 | -118.43840 | 10.256 | 161.1 |
| 2026-01-04T11:20 | 15.86210 | -118.42861 | 10.296 | 160.8 |
| 2026-01-04T11:30 | 15.83500 | -118.41889 | 10.280 | 160.8 |
| 2026-01-04T11:40 | 15.80763 | -118.40905 | 10.383 | 160.8 |
| 2026-01-04T11:50 | 15.78016 | -118.39911 | 10.429 | 160.7 |
| 2026-01-04T12:00 | 15.75292 | -118.38944 | 10.321 | 161.0 |
| 2026-01-04T12:10 | 15.72589 | -118.37974 | 10.254 | 160.8 |
| 2026-01-04T12:20 | 15.69894 | -118.37013 | 10.215 | 160.9 |
| 2026-01-04T12:30 | 15.67201 | -118.36049 | 10.214 | 160.9 |
| 2026-01-04T12:40 | 15.64534 | -118.35086 | 10.124 | 160.7 |
| 2026-01-04T12:50 | 15.61890 | -118.34137 | 10.031 | 160.8 |
| 2026-01-04T13:00 | 15.59242 | -118.33186 | 10.047 | 160.8 |
| 2026-01-04T13:10 | 15.56609 | -118.32248 | 9.981 | 160.9 |
| 2026-01-04T13:20 | 15.53983 | -118.31305 | 9.961 | 160.8 |
| 2026-01-04T13:30 | 15.51359 | -118.30365 | 9.952 | 160.8 |
| 2026-01-04T13:40 | 15.48726 | -118.29422 | 9.986 | 160.9 |
| 2026-01-04T13:50 | 15.46085 | -118.28472 | 10.023 | 160.8 |
| 2026-01-04T14:00 | 15.43441 | -118.27520 | 10.036 | 160.8 |
| 2026-01-04T14:10 | 15.40846 | -118.26593 | 9.839 | 160.9 |
| 2026-01-04T14:20 | 15.38188 | -118.25648 | 10.073 | 161.0 |
| 2026-01-04T14:30 | 15.35494 | -118.24685 | 10.217 | 160.9 |
| 2026-01-04T14:40 | 15.32786 | -118.23713 | 10.273 | 160.8 |
| 2026-01-04T14:50 | 15.30064 | -118.22734 | 10.331 | 160.8 |
| 2026-01-04T15:00 | 15.27343 | -118.21764 | 10.315 | 160.9 |
| 2026-01-04T15:10 | 15.24620 | -118.20788 | 10.333 | 160.8 |
| 2026-01-04T15:20 | 15.21919 | -118.19821 | 10.244 | 160.8 |
| 2026-01-04T15:30 | 15.19220 | -118.18862 | 10.230 | 161.0 |
| 2026-01-04T15:40 | 15.16524 | -118.17891 | 10.233 | 160.7 |
| 2026-01-04T15:50 | 15.13803 | -118.16918 | 10.320 | 160.8 |
| 2026-01-04T16:00 | 15.11254 | -118.16100 | 9.567 | 162.7 |
| 2026-01-04T16:10 | 15.08832 | -118.15335 | 9.076 | 162.9 |
| 2026-01-04T16:20 | 15.06425 | -118.14589 | 9.007 | 163.2 |
| 2026-01-04T16:30 | 15.05591 | -118.14356 | 3.096 | 164.8 |
| 2026-01-04T16:40 | 15.05597 | -118.14349 | 0.031 | 46.0 |
| 2026-01-04T16:50 | 15.05593 | -118.14350 | 0.015 | 193.7 |
| 2026-01-04T17:00 | 15.05588 | -118.14351 | 0.019 | 185.3 |
| 2026-01-04T17:10 | 15.05586 | -118.14352 | 0.007 | 219.8 |
| 2026-01-04T17:20 | 15.05588 | -118.14349 | 0.012 | 59.8 |
| 2026-01-04T17:30 | 15.05600 | -118.14352 | 0.044 | 346.1 |
| 2026-01-04T17:40 | 15.05591 | -118.14352 | 0.033 | 180.0 |
| 2026-01-04T17:50 | 15.05587 | -118.14348 | 0.019 | 129.6 |
| 2026-01-04T18:00 | 15.05587 | -118.14350 | 0.006 | 247.0 |
| 2026-01-04T18:10 | 15.05587 | -118.14352 | 0.008 | 267.3 |
| 2026-01-04T18:20 | 15.05591 | -118.14351 | 0.017 | 14.2 |
| 2026-01-04T18:30 | 15.05586 | -118.14351 | 0.019 | 180.0 |
| 2026-01-04T18:40 | 15.05593 | -118.14352 | 0.025 | 347.3 |
| 2026-01-04T18:50 | 15.05599 | -118.14354 | 0.022 | 342.9 |
| 2026-01-04T19:00 | 15.05596 | -118.14352 | 0.012 | 142.9 |
| 2026-01-04T19:10 | 15.05589 | -118.14348 | 0.029 | 151.9 |
| 2026-01-04T19:20 | 15.05590 | -118.14343 | 0.018 | 71.4 |
| 2026-01-04T19:30 | 15.05593 | -118.14347 | 0.015 | 310.1 |
| 2026-01-04T19:40 | 15.05593 | -118.14351 | 0.016 | 268.7 |
| 2026-01-04T19:50 | 15.04562 | -118.13865 | 4.064 | 155.4 |
| 2026-01-04T20:00 | 15.01923 | -118.12691 | 10.299 | 156.6 |
| 2026-01-04T20:10 | 14.99172 | -118.11691 | 10.456 | 160.5 |
| 2026-01-04T20:20 | 14.96462 | -118.10718 | 10.281 | 160.8 |
| 2026-01-04T20:30 | 14.93770 | -118.09767 | 10.198 | 161.1 |
| 2026-01-04T20:40 | 14.91070 | -118.08801 | 10.244 | 160.8 |
| 2026-01-04T20:50 | 14.88425 | -118.07848 | 10.041 | 160.7 |
| 2026-01-04T21:00 | 14.85751 | -118.06897 | 10.137 | 160.9 |
| 2026-01-04T21:10 | 14.83361 | -118.06042 | 9.066 | 160.8 |
| 2026-01-04T21:20 | 14.80920 | -118.05176 | 9.252 | 160.9 |
| 2026-01-04T21:30 | 14.78151 | -118.04178 | 10.513 | 160.7 |
| 2026-01-04T21:40 | 14.75320 | -118.03171 | 10.735 | 160.9 |
| 2026-01-04T21:50 | 14.72573 | -118.02187 | 10.422 | 160.8 |
| 2026-01-04T22:00 | 14.69848 | -118.01224 | 10.323 | 161.0 |
| 2026-01-04T22:10 | 14.67104 | -118.00234 | 10.420 | 160.7 |
| 2026-01-04T22:20 | 14.64322 | -117.99251 | 10.540 | 161.0 |
| 2026-01-04T22:30 | 14.61607 | -117.98274 | 10.305 | 160.7 |
| 2026-01-04T22:40 | 14.58862 | -117.97298 | 10.409 | 160.9 |
| 2026-01-04T22:50 | 14.56105 | -117.96313 | 10.457 | 160.8 |
| 2026-01-04T23:00 | 14.53349 | -117.95334 | 10.450 | 160.9 |
| 2026-01-04T23:10 | 14.50615 | -117.94361 | 10.365 | 160.9 |
| 2026-01-04T23:20 | 14.47913 | -117.93395 | 10.252 | 160.8 |
| 2026-01-04T23:30 | 14.45230 | -117.92440 | 10.175 | 160.9 |
| 2026-01-04T23:40 | 14.42582 | -117.91493 | 10.047 | 160.8 |
| 2026-01-04T23:50 | 14.39934 | -117.90545 | 10.047 | 160.8 |
| 2026-01-05T00:00 | 14.37316 | -117.89615 | 9.924 | 160.9 |
| 2026-01-05T00:10 | 14.34718 | -117.88688 | 9.856 | 160.8 |
| 2026-01-05T00:20 | 14.32089 | -117.87756 | 9.967 | 160.9 |
| 2026-01-05T00:30 | 14.29607 | -117.86871 | 9.414 | 160.8 |
| 2026-01-05T00:40 | 14.27076 | -117.85969 | 9.597 | 160.8 |
| 2026-01-05T00:50 | 14.24466 | -117.85039 | 9.900 | 160.8 |
| 2026-01-05T01:00 | 14.21824 | -117.84095 | 10.023 | 160.8 |
| 2026-01-05T01:10 | 14.19155 | -117.83151 | 10.114 | 161.0 |
| 2026-01-05T01:20 | 14.16494 | -117.82194 | 10.105 | 160.7 |
| 2026-01-05T01:30 | 14.13810 | -117.81245 | 10.169 | 161.0 |
| 2026-01-05T01:40 | 14.11136 | -117.80290 | 10.146 | 160.8 |
| 2026-01-05T01:50 | 14.08454 | -117.79328 | 10.181 | 160.7 |
| 2026-01-05T02:00 | 14.05777 | -117.78378 | 10.148 | 160.9 |
| 2026-01-05T02:10 | 14.03051 | -117.77419 | 10.326 | 161.1 |
| 2026-01-05T02:20 | 14.00332 | -117.76447 | 10.318 | 160.8 |
| 2026-01-05T02:30 | 13.97628 | -117.75486 | 10.253 | 160.9 |
| 2026-01-05T02:40 | 13.94934 | -117.74522 | 10.225 | 160.7 |
| 2026-01-05T02:50 | 13.92218 | -117.73566 | 10.287 | 161.0 |
| 2026-01-05T03:00 | 13.89482 | -117.72583 | 10.390 | 160.7 |
| 2026-01-05T03:10 | 13.86752 | -117.71619 | 10.344 | 161.0 |
| 2026-01-05T03:20 | 13.84069 | -117.70663 | 10.179 | 160.8 |
| 2026-01-05T03:30 | 13.81397 | -117.69713 | 10.133 | 160.8 |
| 2026-01-05T03:40 | 13.78740 | -117.68762 | 10.084 | 160.7 |
| 2026-01-05T03:50 | 13.76046 | -117.67808 | 10.213 | 160.9 |
| 2026-01-05T04:00 | 13.73383 | -117.66869 | 10.092 | 161.0 |
| 2026-01-05T04:10 | 13.70717 | -117.65917 | 10.115 | 160.8 |
| 2026-01-05T04:20 | 13.68059 | -117.64968 | 10.088 | 160.8 |
| 2026-01-05T04:30 | 13.65393 | -117.64024 | 10.107 | 160.9 |
| 2026-01-05T04:40 | 13.62738 | -117.63083 | 10.065 | 160.9 |
| 2026-01-05T04:50 | 13.60076 | -117.62138 | 10.096 | 160.9 |
| 2026-01-05T05:00 | 13.57416 | -117.61195 | 10.084 | 160.8 |
| 2026-01-05T05:10 | 13.54728 | -117.60241 | 10.195 | 160.9 |
| 2026-01-05T05:20 | 13.52056 | -117.59264 | 10.166 | 160.3 |
| 2026-01-05T05:30 | 13.49374 | -117.58276 | 10.211 | 160.2 |
| 2026-01-05T05:40 | 13.46713 | -117.57297 | 10.132 | 160.2 |
| 2026-01-05T05:50 | 13.44061 | -117.56316 | 10.105 | 160.1 |
| 2026-01-05T06:00 | 13.41392 | -117.55339 | 10.155 | 160.3 |
| 2026-01-05T06:10 | 13.38722 | -117.54349 | 10.176 | 160.1 |
| 2026-01-05T06:20 | 13.36045 | -117.53369 | 10.187 | 160.3 |
| 2026-01-05T06:30 | 13.33344 | -117.52369 | 10.294 | 160.1 |
| 2026-01-05T06:40 | 13.30641 | -117.51364 | 10.304 | 160.0 |
| 2026-01-05T06:50 | 13.27938 | -117.50374 | 10.285 | 160.3 |
| 2026-01-05T07:00 | 13.25250 | -117.49383 | 10.238 | 160.2 |
| 2026-01-05T07:10 | 13.22573 | -117.48410 | 10.181 | 160.4 |
| 2026-01-05T07:20 | 13.19924 | -117.47434 | 10.089 | 160.1 |
| 2026-01-05T07:30 | 13.17248 | -117.46443 | 10.199 | 160.1 |
| 2026-01-05T07:40 | 13.14588 | -117.45461 | 10.130 | 160.1 |
| 2026-01-05T07:50 | 13.11858 | -117.44471 | 10.381 | 160.4 |
| 2026-01-05T08:00 | 13.09110 | -117.43460 | 10.463 | 160.2 |
| 2026-01-05T08:10 | 13.06359 | -117.42440 | 10.485 | 160.0 |
| 2026-01-05T08:20 | 13.03586 | -117.41423 | 10.555 | 160.2 |
| 2026-01-05T08:30 | 13.00794 | -117.40399 | 10.630 | 160.2 |
| 2026-01-05T08:40 | 12.98019 | -117.39361 | 10.589 | 159.9 |
| 2026-01-05T08:50 | 12.95283 | -117.38366 | 10.406 | 160.4 |
| 2026-01-05T09:00 | 12.92567 | -117.37389 | 10.318 | 160.6 |
| 2026-01-05T09:10 | 12.89873 | -117.36376 | 10.285 | 159.8 |
| 2026-01-05T09:20 | 12.87176 | -117.35385 | 10.270 | 160.2 |
| 2026-01-05T09:30 | 12.84496 | -117.34408 | 10.195 | 160.3 |
| 2026-01-05T09:40 | 12.81868 | -117.33428 | 10.025 | 159.9 |
| 2026-01-05T09:50 | 12.79227 | -117.32462 | 10.052 | 160.2 |
| 2026-01-05T10:00 | 12.76545 | -117.31493 | 10.193 | 160.5 |
| 2026-01-05T10:10 | 12.73830 | -117.30490 | 10.344 | 160.1 |
| 2026-01-05T10:20 | 12.71105 | -117.29484 | 10.383 | 160.1 |
| 2026-01-05T10:30 | 12.68391 | -117.28490 | 10.333 | 160.2 |
| 2026-01-05T10:40 | 12.65678 | -117.27493 | 10.332 | 160.2 |
| 2026-01-05T10:50 | 12.62978 | -117.26498 | 10.285 | 160.1 |
| 2026-01-05T11:00 | 12.60230 | -117.25482 | 10.473 | 160.0 |
| 2026-01-05T11:10 | 12.57455 | -117.24471 | 10.557 | 160.3 |
| 2026-01-05T11:20 | 12.54766 | -117.23483 | 10.241 | 160.2 |
| 2026-01-05T11:30 | 12.52118 | -117.22512 | 10.081 | 160.2 |
| 2026-01-05T11:40 | 12.49442 | -117.21529 | 10.190 | 160.2 |
| 2026-01-05T11:50 | 12.46787 | -117.20562 | 10.103 | 160.3 |
| 2026-01-05T12:00 | 12.44136 | -117.19577 | 10.108 | 159.9 |
| 2026-01-05T12:10 | 12.41475 | -117.18605 | 10.129 | 160.3 |
| 2026-01-05T12:20 | 12.38807 | -117.17633 | 10.151 | 160.3 |
| 2026-01-05T12:30 | 12.36168 | -117.16651 | 10.066 | 159.9 |
| 2026-01-05T12:40 | 12.33534 | -117.15688 | 10.027 | 160.2 |
| 2026-01-05T12:50 | 12.30909 | -117.14725 | 9.995 | 160.2 |
| 2026-01-05T13:00 | 12.28265 | -117.13756 | 10.067 | 160.2 |
| 2026-01-05T13:10 | 12.25618 | -117.12787 | 10.077 | 160.2 |
| 2026-01-05T13:20 | 12.22973 | -117.11819 | 10.069 | 160.2 |
| 2026-01-05T13:30 | 12.20333 | -117.10848 | 10.057 | 160.1 |
| 2026-01-05T13:40 | 12.17688 | -117.09884 | 10.065 | 160.3 |
| 2026-01-05T13:50 | 12.15018 | -117.08906 | 10.168 | 160.2 |
| 2026-01-05T14:00 | 12.12334 | -117.07920 | 10.222 | 160.1 |
| 2026-01-05T14:10 | 12.09617 | -117.06923 | 10.346 | 160.2 |
| 2026-01-05T14:20 | 12.06943 | -117.05928 | 10.199 | 159.9 |
| 2026-01-05T14:30 | 12.04301 | -117.04970 | 10.049 | 160.4 |
| 2026-01-05T14:40 | 12.01678 | -117.03967 | 10.039 | 159.4 |
| 2026-01-05T14:50 | 11.99079 | -117.02919 | 10.017 | 158.3 |
| 2026-01-05T15:00 | 11.96496 | -117.01873 | 9.959 | 158.3 |
| 2026-01-05T15:10 | 11.94466 | -116.99977 | 9.880 | 137.4 |
| 2026-01-05T15:20 | 11.92368 | -116.98075 | 10.073 | 138.2 |
| 2026-01-05T15:30 | 11.92022 | -116.97023 | 3.913 | 108.5 |
| 2026-01-05T15:40 | 11.92031 | -116.97028 | 0.037 | 330.6 |
| 2026-01-05T15:50 | 11.92074 | -116.97079 | 0.238 | 310.8 |
| 2026-01-05T16:00 | 11.92099 | -116.97112 | 0.144 | 307.8 |
| 2026-01-05T16:10 | 11.92292 | -116.97403 | 1.240 | 303.9 |
| 2026-01-05T16:20 | 11.92584 | -116.97891 | 2.012 | 301.3 |
| 2026-01-05T16:30 | 11.92922 | -116.98353 | 2.032 | 306.6 |
| 2026-01-05T16:40 | 11.93253 | -116.98834 | 2.067 | 305.0 |
| 2026-01-05T16:50 | 11.93479 | -116.99225 | 1.602 | 300.4 |
| 2026-01-05T17:00 | 11.93662 | -116.99604 | 1.488 | 296.1 |
| 2026-01-05T17:10 | 11.93814 | -116.99989 | 1.464 | 291.9 |
| 2026-01-05T17:20 | 11.93972 | -117.00401 | 1.558 | 291.3 |
| 2026-01-05T17:30 | 11.94382 | -117.00860 | 2.186 | 312.1 |
| 2026-01-05T17:40 | 11.94592 | -117.01160 | 1.298 | 305.5 |
| 2026-01-05T17:50 | 11.95117 | -117.01253 | 1.909 | 350.1 |
| 2026-01-05T18:00 | 11.95430 | -117.01289 | 1.128 | 353.6 |
| 2026-01-05T18:10 | 11.94221 | -117.01905 | 4.845 | 206.6 |
| 2026-01-05T18:20 | 11.93224 | -117.02400 | 3.975 | 206.1 |
| 2026-01-05T18:30 | 11.93195 | -117.02702 | 1.073 | 264.5 |
| 2026-01-05T18:40 | 11.93042 | -117.02707 | 0.548 | 181.6 |
| 2026-01-05T18:50 | 11.93000 | -117.02695 | 0.157 | 163.9 |
| 2026-01-05T19:00 | 11.93012 | -117.02696 | 0.044 | 354.1 |
| 2026-01-05T19:10 | 11.93007 | -117.02697 | 0.019 | 195.1 |
| 2026-01-05T19:20 | 11.93010 | -117.02694 | 0.017 | 44.6 |
| 2026-01-05T19:30 | 11.93014 | -117.02700 | 0.024 | 298.1 |
| 2026-01-05T19:40 | 11.92997 | -117.02715 | 0.079 | 221.6 |
| 2026-01-05T19:50 | 11.93000 | -117.02715 | 0.012 | 7.0 |
| 2026-01-05T20:00 | 11.93020 | -117.02707 | 0.077 | 20.8 |
| 2026-01-05T20:10 | 11.93015 | -117.02709 | 0.020 | 200.7 |
| 2026-01-05T20:20 | 11.93006 | -117.02713 | 0.036 | 205.7 |
| 2026-01-05T20:30 | 11.93016 | -117.02709 | 0.038 | 21.4 |
| 2026-01-05T20:40 | 11.93017 | -117.02707 | 0.008 | 77.0 |
| 2026-01-05T20:50 | 11.93009 | -117.02701 | 0.034 | 141.9 |
| 2026-01-05T21:00 | 11.93010 | -117.02704 | 0.009 | 281.9 |
| 2026-01-05T21:10 | 11.93002 | -117.02709 | 0.034 | 211.6 |
| 2026-01-05T21:20 | 11.93005 | -117.02706 | 0.015 | 38.9 |
| 2026-01-05T21:30 | 11.93013 | -117.02702 | 0.032 | 24.8 |
| 2026-01-05T21:40 | 11.93002 | -117.02708 | 0.045 | 208.0 |
| 2026-01-05T21:50 | 11.93017 | -117.02708 | 0.053 | 0.4 |
| 2026-01-05T22:00 | 11.93007 | -117.02709 | 0.033 | 187.3 |
| 2026-01-05T22:10 | 11.93003 | -117.02713 | 0.020 | 224.6 |
| 2026-01-05T22:20 | 11.93009 | -117.02710 | 0.024 | 30.7 |
| 2026-01-05T22:30 | 11.93018 | -117.02713 | 0.033 | 338.5 |
| 2026-01-05T22:40 | 11.93009 | -117.02703 | 0.048 | 131.5 |
| 2026-01-05T22:50 | 11.93000 | -117.02709 | 0.039 | 213.1 |
| 2026-01-05T23:00 | 11.93017 | -117.02705 | 0.065 | 11.9 |
| 2026-01-05T23:10 | 11.93008 | -117.02704 | 0.033 | 170.8 |
| 2026-01-05T23:20 | 11.93008 | -117.02702 | 0.007 | 86.9 |
| 2026-01-05T23:30 | 11.93009 | -117.02707 | 0.020 | 278.1 |
| 2026-01-05T23:40 | 11.93015 | -117.02706 | 0.020 | 16.0 |
| 2026-01-05T23:50 | 11.93002 | -117.02711 | 0.049 | 199.2 |
| 2026-01-06T00:00 | 11.93009 | -117.02712 | 0.026 | 344.1 |
| 2026-01-06T00:10 | 11.93008 | -117.02639 | 0.260 | 90.6 |
| 2026-01-06T00:20 | 11.93012 | -117.02624 | 0.055 | 75.4 |
| 2026-01-06T00:30 | 11.93012 | -117.02627 | 0.011 | 282.9 |
| 2026-01-06T00:40 | 11.93012 | -117.02629 | 0.007 | 251.3 |
| 2026-01-06T00:50 | 11.93015 | -117.02627 | 0.014 | 22.9 |
| 2026-01-06T01:00 | 11.93013 | -117.02629 | 0.012 | 223.3 |
| 2026-01-06T01:10 | 11.93012 | -117.02621 | 0.028 | 95.8 |
| 2026-01-06T01:20 | 11.93009 | -117.02623 | 0.012 | 216.1 |
| 2026-01-06T01:30 | 11.93008 | -117.02627 | 0.013 | 253.8 |
| 2026-01-06T01:40 | 11.93016 | -117.02628 | 0.029 | 354.4 |
| 2026-01-06T01:50 | 11.93013 | -117.02670 | 0.151 | 264.8 |
| 2026-01-06T02:00 | 11.93015 | -117.02699 | 0.101 | 274.9 |
| 2026-01-06T02:10 | 11.93013 | -117.02697 | 0.011 | 138.2 |
| 2026-01-06T02:20 | 11.93009 | -117.02697 | 0.012 | 181.7 |
| 2026-01-06T02:30 | 11.93003 | -117.02698 | 0.025 | 193.2 |
| 2026-01-06T02:40 | 11.93008 | -117.02695 | 0.023 | 32.8 |
| 2026-01-06T02:50 | 11.93006 | -117.02690 | 0.018 | 112.3 |
| 2026-01-06T03:00 | 11.93012 | -117.02699 | 0.038 | 302.0 |
| 2026-01-06T03:10 | 11.93001 | -117.02694 | 0.042 | 156.0 |
| 2026-01-06T03:20 | 11.93001 | -117.02693 | 0.005 | 101.5 |
| 2026-01-06T03:30 | 11.92999 | -117.02694 | 0.008 | 215.4 |
| 2026-01-06T03:40 | 11.93002 | -117.02696 | 0.012 | 332.3 |
| 2026-01-06T03:50 | 11.93005 | -117.02695 | 0.009 | 16.7 |
| 2026-01-06T04:00 | 11.93004 | -117.02699 | 0.014 | 255.0 |
| 2026-01-06T04:10 | 11.92996 | -117.02696 | 0.028 | 161.4 |
| 2026-01-06T04:20 | 11.93008 | -117.02700 | 0.045 | 345.4 |
| 2026-01-06T04:30 | 11.93007 | -117.02693 | 0.024 | 103.8 |
| 2026-01-06T04:40 | 11.93008 | -117.02693 | 0.003 | 0.0 |
| 2026-01-06T04:50 | 11.93000 | -117.02696 | 0.028 | 202.0 |
| 2026-01-06T05:00 | 11.93006 | -117.02692 | 0.025 | 35.3 |
| 2026-01-06T05:10 | 11.93007 | -117.02692 | 0.002 | 26.2 |
| 2026-01-06T05:20 | 11.93004 | -117.02697 | 0.022 | 242.2 |
| 2026-01-06T05:30 | 11.92997 | -117.02680 | 0.063 | 111.7 |
| 2026-01-06T05:40 | 11.92950 | -117.02611 | 0.298 | 124.7 |
| 2026-01-06T05:50 | 11.92923 | -117.02572 | 0.169 | 124.7 |
| 2026-01-06T06:00 | 11.92927 | -117.02576 | 0.022 | 312.2 |
| 2026-01-06T06:10 | 11.92922 | -117.02577 | 0.020 | 190.9 |
| 2026-01-06T06:20 | 11.92923 | -117.02573 | 0.015 | 73.8 |
| 2026-01-06T06:30 | 11.92918 | -117.02573 | 0.017 | 176.4 |
| 2026-01-06T06:40 | 11.92932 | -117.02572 | 0.050 | 5.7 |
| 2026-01-06T06:50 | 11.92915 | -117.02577 | 0.065 | 198.9 |
| 2026-01-06T07:00 | 11.92929 | -117.02571 | 0.057 | 23.0 |
| 2026-01-06T07:10 | 11.92922 | -117.02551 | 0.075 | 111.4 |
| 2026-01-06T07:20 | 11.92921 | -117.02554 | 0.010 | 268.0 |
| 2026-01-06T07:30 | 11.92921 | -117.02555 | 0.004 | 208.7 |
| 2026-01-06T07:40 | 11.92928 | -117.02552 | 0.029 | 24.0 |
| 2026-01-06T07:50 | 11.92919 | -117.02551 | 0.032 | 174.9 |
| 2026-01-06T08:00 | 11.92917 | -117.02559 | 0.028 | 255.2 |
| 2026-01-06T08:10 | 11.92917 | -117.02557 | 0.005 | 94.2 |
| 2026-01-06T08:20 | 11.92915 | -117.02558 | 0.007 | 220.5 |
| 2026-01-06T08:30 | 11.92919 | -117.02556 | 0.016 | 38.2 |
| 2026-01-06T08:40 | 11.92918 | -117.02556 | 0.004 | 204.1 |
| 2026-01-06T08:50 | 11.92926 | -117.02552 | 0.032 | 29.6 |
| 2026-01-06T09:00 | 11.92930 | -117.02549 | 0.019 | 27.2 |
| 2026-01-06T09:10 | 11.92923 | -117.02552 | 0.028 | 201.4 |
| 2026-01-06T09:20 | 11.92918 | -117.02554 | 0.020 | 197.5 |
| 2026-01-06T09:30 | 11.92915 | -117.02559 | 0.021 | 244.4 |
| 2026-01-06T09:40 | 11.92918 | -117.02559 | 0.011 | 1.8 |
| 2026-01-06T09:50 | 11.92924 | -117.02557 | 0.021 | 15.4 |
| 2026-01-06T10:00 | 11.92919 | -117.02557 | 0.020 | 177.9 |
| 2026-01-06T10:10 | 11.92917 | -117.02554 | 0.014 | 114.3 |
| 2026-01-06T10:20 | 11.92921 | -117.02555 | 0.014 | 343.7 |
| 2026-01-06T10:30 | 11.92916 | -117.02556 | 0.017 | 195.9 |
| 2026-01-06T10:40 | 11.92918 | -117.02556 | 0.005 | 348.9 |
| 2026-01-06T10:50 | 11.92946 | -117.02552 | 0.103 | 8.8 |
| 2026-01-06T11:00 | 11.93027 | -117.02520 | 0.310 | 21.4 |
| 2026-01-06T11:10 | 11.93078 | -117.02495 | 0.204 | 25.9 |
| 2026-01-06T11:20 | 11.93064 | -117.02476 | 0.082 | 127.3 |
| 2026-01-06T11:30 | 11.93054 | -117.02455 | 0.082 | 115.0 |
| 2026-01-06T11:40 | 11.93072 | -117.02447 | 0.069 | 25.9 |
| 2026-01-06T11:50 | 11.93092 | -117.02454 | 0.076 | 339.5 |
| 2026-01-06T12:00 | 11.93116 | -117.02469 | 0.101 | 329.4 |
| 2026-01-06T12:10 | 11.93132 | -117.02495 | 0.109 | 303.0 |
| 2026-01-06T12:20 | 11.93132 | -117.02481 | 0.047 | 93.5 |
| 2026-01-06T12:30 | 11.93136 | -117.02487 | 0.025 | 309.2 |
| 2026-01-06T12:40 | 11.93129 | -117.02482 | 0.030 | 143.0 |
| 2026-01-06T12:50 | 11.93130 | -117.02484 | 0.009 | 274.6 |
| 2026-01-06T13:00 | 11.93131 | -117.02473 | 0.042 | 81.2 |
| 2026-01-06T13:10 | 11.93120 | -117.02462 | 0.053 | 137.9 |
| 2026-01-06T13:20 | 11.93112 | -117.02456 | 0.040 | 142.0 |
| 2026-01-06T13:30 | 11.93116 | -117.02456 | 0.015 | 348.1 |
| 2026-01-06T13:40 | 11.93113 | -117.02453 | 0.016 | 130.9 |
| 2026-01-06T13:50 | 11.93114 | -117.02455 | 0.009 | 299.0 |
| 2026-01-06T14:00 | 11.93114 | -117.02455 | 0.000 | 180.0 |
| 2026-01-06T14:10 | 11.93117 | -117.02452 | 0.015 | 40.8 |
| 2026-01-06T14:20 | 11.93113 | -117.02453 | 0.014 | 184.2 |
| 2026-01-06T14:30 | 11.93116 | -117.02448 | 0.018 | 54.0 |
| 2026-01-06T14:40 | 11.93119 | -117.02452 | 0.017 | 309.5 |
| 2026-01-06T14:50 | 11.93106 | -117.02444 | 0.056 | 147.6 |
| 2026-01-06T15:00 | 11.93100 | -117.02442 | 0.022 | 166.4 |
| 2026-01-06T15:10 | 11.93100 | -117.02445 | 0.010 | 265.7 |
| 2026-01-06T15:20 | 11.93102 | -117.02439 | 0.023 | 69.6 |
| 2026-01-06T15:30 | 11.93104 | -117.02443 | 0.018 | 299.0 |
| 2026-01-06T15:40 | 11.93102 | -117.02442 | 0.010 | 141.4 |
| 2026-01-06T15:50 | 11.93107 | -117.02446 | 0.023 | 319.2 |
| 2026-01-06T16:00 | 11.93107 | -117.02446 | 0.002 | 230.9 |
| 2026-01-06T16:10 | 11.93102 | -117.02445 | 0.017 | 159.6 |
| 2026-01-06T16:20 | 11.93109 | -117.02451 | 0.034 | 318.8 |
| 2026-01-06T16:30 | 11.93100 | -117.02488 | 0.135 | 255.3 |
| 2026-01-06T16:40 | 11.93098 | -117.02485 | 0.011 | 126.6 |
| 2026-01-06T16:50 | 11.93081 | -117.02486 | 0.060 | 180.7 |
| 2026-01-06T17:00 | 11.93105 | -117.02493 | 0.089 | 343.7 |
| 2026-01-06T17:10 | 11.93100 | -117.02487 | 0.026 | 132.1 |
| 2026-01-06T17:20 | 11.93078 | -117.02487 | 0.079 | 180.5 |
| 2026-01-06T17:30 | 11.93074 | -117.02490 | 0.018 | 211.1 |
| 2026-01-06T17:40 | 11.93082 | -117.02493 | 0.029 | 340.7 |
| 2026-01-06T17:50 | 11.93106 | -117.02499 | 0.091 | 345.6 |
| 2026-01-06T18:00 | 11.93106 | -117.02493 | 0.020 | 90.0 |
| 2026-01-06T18:10 | 11.93106 | -117.02496 | 0.010 | 267.9 |
| 2026-01-06T18:20 | 11.93106 | -117.02500 | 0.015 | 275.5 |
| 2026-01-06T18:30 | 11.93103 | -117.02498 | 0.013 | 144.2 |
| 2026-01-06T18:40 | 11.93100 | -117.02496 | 0.016 | 145.6 |
| 2026-01-06T18:50 | 11.93102 | -117.02502 | 0.023 | 287.6 |
| 2026-01-06T19:00 | 11.93100 | -117.02495 | 0.024 | 100.3 |
| 2026-01-06T19:10 | 11.93102 | -117.02501 | 0.022 | 282.0 |
| 2026-01-06T19:20 | 11.93103 | -117.02497 | 0.017 | 69.0 |
| 2026-01-06T19:30 | 11.93101 | -117.02503 | 0.022 | 248.1 |
| 2026-01-06T19:40 | 11.93103 | -117.02499 | 0.013 | 63.8 |
| 2026-01-06T19:50 | 11.93101 | -117.02500 | 0.008 | 198.2 |
| 2026-01-06T20:00 | 11.93098 | -117.02497 | 0.013 | 136.5 |
| 2026-01-06T20:10 | 11.93099 | -117.02495 | 0.011 | 60.6 |
| 2026-01-06T20:20 | 11.93097 | -117.02498 | 0.015 | 228.5 |
| 2026-01-06T20:30 | 11.93100 | -117.02497 | 0.013 | 7.8 |
| 2026-01-06T20:40 | 11.93102 | -117.02497 | 0.006 | 353.0 |
| 2026-01-06T20:50 | 11.93102 | -117.02501 | 0.011 | 273.6 |
| 2026-01-06T21:00 | 11.93104 | -117.02501 | 0.006 | 340.8 |
| 2026-01-06T21:10 | 11.93099 | -117.02499 | 0.019 | 156.2 |
| 2026-01-06T21:20 | 11.93095 | -117.02497 | 0.017 | 149.4 |
| 2026-01-06T21:30 | 11.93105 | -117.02502 | 0.040 | 333.6 |
| 2026-01-06T21:40 | 11.93098 | -117.02496 | 0.030 | 138.8 |
| 2026-01-06T21:50 | 11.93103 | -117.02502 | 0.026 | 303.9 |
| 2026-01-06T22:00 | 11.93102 | -117.02497 | 0.020 | 97.4 |
| 2026-01-06T22:10 | 11.93102 | -117.02499 | 0.007 | 273.1 |
| 2026-01-06T22:20 | 11.93104 | -117.02500 | 0.008 | 329.4 |
| 2026-01-06T22:30 | 11.93102 | -117.02501 | 0.008 | 215.4 |
| 2026-01-06T22:40 | 11.93099 | -117.02501 | 0.013 | 175.2 |
| 2026-01-06T22:50 | 11.93104 | -117.02500 | 0.021 | 9.8 |
| 2026-01-06T23:00 | 11.93101 | -117.02486 | 0.050 | 103.6 |
| 2026-01-06T23:10 | 11.93094 | -117.02467 | 0.071 | 110.7 |
| 2026-01-06T23:20 | 11.93099 | -117.02472 | 0.026 | 317.1 |
| 2026-01-06T23:30 | 11.93098 | -117.02477 | 0.016 | 256.1 |
| 2026-01-06T23:40 | 11.93104 | -117.02473 | 0.024 | 32.6 |
| 2026-01-06T23:50 | 11.93102 | -117.02476 | 0.013 | 237.2 |
| 2026-01-07T00:00 | 11.93099 | -117.02474 | 0.012 | 149.4 |
| 2026-01-07T00:10 | 11.93101 | -117.02471 | 0.014 | 65.7 |
| 2026-01-07T00:20 | 11.93098 | -117.02474 | 0.014 | 233.0 |
| 2026-01-07T00:30 | 11.93101 | -117.02471 | 0.012 | 45.8 |
| 2026-01-07T00:40 | 11.93102 | -117.02473 | 0.008 | 292.1 |
| 2026-01-07T00:50 | 11.93103 | -117.02475 | 0.010 | 311.2 |
| 2026-01-07T01:00 | 11.93101 | -117.02470 | 0.022 | 118.6 |
| 2026-01-07T01:10 | 11.93103 | -117.02477 | 0.025 | 291.0 |
| 2026-01-07T01:20 | 11.93101 | -117.02469 | 0.027 | 107.2 |
| 2026-01-07T01:30 | 11.93101 | -117.02456 | 0.049 | 90.8 |
| 2026-01-07T01:40 | 11.93104 | -117.02455 | 0.012 | 13.8 |
| 2026-01-07T01:50 | 11.93105 | -117.02454 | 0.005 | 33.3 |
| 2026-01-07T02:00 | 11.93103 | -117.02457 | 0.013 | 231.4 |
| 2026-01-07T02:10 | 11.93099 | -117.02452 | 0.021 | 127.1 |
| 2026-01-07T02:20 | 11.93104 | -117.02452 | 0.017 | 4.8 |
| 2026-01-07T02:30 | 11.93103 | -117.02455 | 0.011 | 253.1 |
| 2026-01-07T02:40 | 11.93105 | -117.02457 | 0.011 | 316.8 |
| 2026-01-07T02:50 | 11.93106 | -117.02454 | 0.011 | 80.4 |
| 2026-01-07T03:00 | 11.93105 | -117.02455 | 0.006 | 224.6 |
| 2026-01-07T03:10 | 11.93102 | -117.02455 | 0.011 | 180.0 |
| 2026-01-07T03:20 | 11.93103 | -117.02449 | 0.023 | 73.6 |
| 2026-01-07T03:30 | 11.93106 | -117.02451 | 0.011 | 312.8 |
| 2026-01-07T03:40 | 11.93107 | -117.02453 | 0.008 | 315.4 |
| 2026-01-07T03:50 | 11.93106 | -117.02453 | 0.005 | 195.7 |
| 2026-01-07T04:00 | 11.93101 | -117.02446 | 0.031 | 128.0 |
| 2026-01-07T04:10 | 11.93102 | -117.02453 | 0.024 | 283.8 |
| 2026-01-07T04:20 | 11.93097 | -117.02447 | 0.028 | 130.8 |
| 2026-01-07T04:30 | 11.93102 | -117.02441 | 0.028 | 47.6 |
| 2026-01-07T04:40 | 11.93111 | -117.02442 | 0.029 | 355.9 |
| 2026-01-07T04:50 | 11.93110 | -117.02436 | 0.020 | 98.4 |
| 2026-01-07T05:00 | 11.93071 | -117.02599 | 0.591 | 256.3 |
| 2026-01-07T05:10 | 11.93015 | -117.02734 | 0.516 | 247.5 |
| 2026-01-07T05:20 | 11.93017 | -117.02732 | 0.009 | 54.6 |
| 2026-01-07T05:30 | 11.93016 | -117.02740 | 0.029 | 262.2 |
| 2026-01-07T05:40 | 11.93005 | -117.02738 | 0.041 | 169.1 |
| 2026-01-07T05:50 | 11.93009 | -117.02739 | 0.018 | 348.6 |
| 2026-01-07T06:00 | 11.93004 | -117.02732 | 0.031 | 128.5 |
| 2026-01-07T06:10 | 11.93003 | -117.02733 | 0.005 | 232.7 |
| 2026-01-07T06:20 | 11.93005 | -117.02735 | 0.011 | 311.4 |
| 2026-01-07T06:30 | 11.93006 | -117.02740 | 0.017 | 276.0 |
| 2026-01-07T06:40 | 11.93007 | -117.02676 | 0.227 | 89.1 |
| 2026-01-07T06:50 | 11.93005 | -117.02653 | 0.082 | 93.5 |
| 2026-01-07T07:00 | 11.93007 | -117.02656 | 0.014 | 292.9 |
| 2026-01-07T07:10 | 11.93001 | -117.02655 | 0.023 | 165.7 |
| 2026-01-07T07:20 | 11.93004 | -117.02652 | 0.014 | 36.5 |
| 2026-01-07T07:30 | 11.93008 | -117.02655 | 0.017 | 326.4 |
| 2026-01-07T07:40 | 11.93004 | -117.02650 | 0.020 | 126.7 |
| 2026-01-07T07:50 | 11.93005 | -117.02650 | 0.001 | 55.9 |
| 2026-01-07T08:00 | 11.93003 | -117.02655 | 0.018 | 243.6 |
| 2026-01-07T08:10 | 11.93002 | -117.02651 | 0.013 | 102.4 |
| 2026-01-07T08:20 | 11.93007 | -117.02651 | 0.017 | 355.3 |
| 2026-01-07T08:30 | 11.93003 | -117.02732 | 0.285 | 267.4 |
| 2026-01-07T08:40 | 11.93011 | -117.02786 | 0.194 | 278.3 |
| 2026-01-07T08:50 | 11.93018 | -117.02787 | 0.026 | 355.4 |
| 2026-01-07T09:00 | 11.93010 | -117.02790 | 0.031 | 201.9 |
| 2026-01-07T09:10 | 11.93008 | -117.02784 | 0.021 | 107.5 |
| 2026-01-07T09:20 | 11.93013 | -117.02788 | 0.021 | 325.9 |
| 2026-01-07T09:30 | 11.93009 | -117.02784 | 0.019 | 136.2 |
| 2026-01-07T09:40 | 11.93010 | -117.02790 | 0.022 | 279.3 |
| 2026-01-07T09:50 | 11.93008 | -117.02788 | 0.011 | 144.7 |
| 2026-01-07T10:00 | 11.93017 | -117.02788 | 0.033 | 4.3 |
| 2026-01-07T10:10 | 11.93017 | -117.02785 | 0.009 | 87.7 |
| 2026-01-07T10:20 | 11.93012 | -117.02717 | 0.240 | 94.1 |
| 2026-01-07T10:30 | 11.93018 | -117.02718 | 0.023 | 358.2 |
| 2026-01-07T10:40 | 11.93017 | -117.02717 | 0.007 | 155.1 |
| 2026-01-07T10:50 | 11.93018 | -117.02719 | 0.009 | 294.8 |
| 2026-01-07T11:00 | 11.93011 | -117.02718 | 0.024 | 174.0 |
| 2026-01-07T11:10 | 11.93011 | -117.02718 | 0.002 | 161.8 |
| 2026-01-07T11:20 | 11.93009 | -117.02715 | 0.011 | 111.1 |
| 2026-01-07T11:30 | 11.93012 | -117.02712 | 0.015 | 45.5 |
| 2026-01-07T11:40 | 11.93012 | -117.02718 | 0.020 | 266.9 |
| 2026-01-07T11:50 | 11.92910 | -117.02685 | 0.385 | 162.8 |
| 2026-01-07T12:00 | 11.92188 | -117.02006 | 3.526 | 137.2 |
| 2026-01-07T12:10 | 11.91318 | -117.01054 | 4.578 | 132.8 |
| 2026-01-07T12:20 | 11.90220 | -116.99859 | 5.767 | 133.0 |
| 2026-01-07T12:30 | 11.88628 | -116.98230 | 8.096 | 134.8 |
| 2026-01-07T12:40 | 11.86806 | -116.96344 | 9.319 | 134.4 |
| 2026-01-07T12:50 | 11.84850 | -116.94283 | 10.099 | 133.9 |
| 2026-01-07T13:00 | 11.82884 | -116.92199 | 10.181 | 133.8 |
| 2026-01-07T13:10 | 11.80892 | -116.90114 | 10.249 | 134.1 |
| 2026-01-07T13:20 | 11.78901 | -116.88028 | 10.250 | 134.1 |
| 2026-01-07T13:30 | 11.76949 | -116.85965 | 10.091 | 133.8 |
| 2026-01-07T13:40 | 11.75220 | -116.84165 | 8.873 | 134.3 |
| 2026-01-07T13:50 | 11.73263 | -116.82716 | 8.678 | 143.9 |
| 2026-01-07T14:00 | 11.72250 | -116.81962 | 4.499 | 143.7 |
| 2026-01-07T14:10 | 11.72275 | -116.81952 | 0.094 | 20.7 |
| 2026-01-07T14:20 | 11.72271 | -116.81963 | 0.039 | 250.7 |
| 2026-01-07T14:30 | 11.72277 | -116.81958 | 0.026 | 44.0 |
| 2026-01-07T14:40 | 11.72275 | -116.81957 | 0.004 | 175.3 |
| 2026-01-07T14:50 | 11.72280 | -116.81949 | 0.034 | 60.4 |
| 2026-01-07T15:00 | 11.72272 | -116.81952 | 0.031 | 197.2 |
| 2026-01-07T15:10 | 11.72498 | -116.81699 | 1.204 | 47.7 |
| 2026-01-07T15:20 | 11.72698 | -116.81876 | 0.949 | 318.9 |
| 2026-01-07T15:30 | 11.74582 | -116.82590 | 7.203 | 339.5 |
| 2026-01-07T15:40 | 11.77264 | -116.83315 | 9.944 | 345.1 |
| 2026-01-07T15:50 | 11.78961 | -116.83162 | 6.100 | 5.1 |
| 2026-01-07T16:00 | 11.79053 | -116.83040 | 0.543 | 52.6 |
| 2026-01-07T16:10 | 11.79057 | -116.83039 | 0.017 | 11.8 |
| 2026-01-07T16:20 | 11.79063 | -116.83039 | 0.019 | 6.2 |
| 2026-01-07T16:30 | 11.79048 | -116.83038 | 0.052 | 178.8 |
| 2026-01-07T16:40 | 11.79180 | -116.82932 | 0.604 | 38.6 |
| 2026-01-07T16:50 | 11.79380 | -116.82816 | 0.825 | 29.6 |
| 2026-01-07T17:00 | 11.78415 | -116.82726 | 3.472 | 174.8 |
| 2026-01-07T17:10 | 11.76562 | -116.84713 | 9.656 | 226.6 |
| 2026-01-07T17:20 | 11.74927 | -116.87173 | 10.472 | 236.0 |
| 2026-01-07T17:30 | 11.74866 | -116.88440 | 4.478 | 267.2 |
| 2026-01-07T17:40 | 11.74889 | -116.88473 | 0.142 | 306.9 |
| 2026-01-07T17:50 | 11.74883 | -116.88459 | 0.054 | 115.4 |
| 2026-01-07T18:00 | 11.74878 | -116.88467 | 0.035 | 236.6 |
| 2026-01-07T18:10 | 11.74977 | -116.88302 | 0.682 | 58.5 |
| 2026-01-07T18:20 | 11.75120 | -116.88177 | 0.676 | 40.8 |
| 2026-01-07T18:30 | 11.75952 | -116.88757 | 3.616 | 325.5 |
| 2026-01-07T18:40 | 11.78297 | -116.90747 | 10.948 | 320.1 |
| 2026-01-07T18:50 | 11.80622 | -116.92732 | 10.880 | 319.9 |
| 2026-01-07T19:00 | 11.82940 | -116.94701 | 10.828 | 320.1 |
| 2026-01-07T19:10 | 11.85216 | -116.96648 | 10.661 | 319.9 |
| 2026-01-07T19:20 | 11.87535 | -116.98620 | 10.833 | 320.1 |
| 2026-01-07T19:30 | 11.89858 | -117.00549 | 10.751 | 320.7 |
| 2026-01-07T19:40 | 11.92240 | -117.02306 | 10.543 | 324.0 |
| 2026-01-07T19:50 | 11.92984 | -117.02673 | 2.966 | 334.1 |
| 2026-01-07T20:00 | 11.93013 | -117.02696 | 0.129 | 322.5 |
| 2026-01-07T20:10 | 11.93006 | -117.02687 | 0.039 | 126.3 |
| 2026-01-07T20:20 | 11.93016 | -117.02690 | 0.037 | 343.0 |
| 2026-01-07T20:30 | 11.93011 | -117.02691 | 0.018 | 198.2 |
| 2026-01-07T20:40 | 11.93008 | -117.02692 | 0.013 | 186.1 |
| 2026-01-07T20:50 | 11.93006 | -117.02695 | 0.012 | 246.2 |
| 2026-01-07T21:00 | 11.93011 | -117.02693 | 0.019 | 20.5 |
| 2026-01-07T21:10 | 11.93012 | -117.02694 | 0.006 | 306.0 |
| 2026-01-07T21:20 | 11.93007 | -117.02699 | 0.027 | 219.2 |
| 2026-01-07T21:30 | 11.93018 | -117.02694 | 0.047 | 23.1 |
| 2026-01-07T21:40 | 11.93009 | -117.02687 | 0.043 | 144.1 |
| 2026-01-07T21:50 | 11.93013 | -117.02686 | 0.014 | 2.8 |
| 2026-01-07T22:00 | 11.93014 | -117.02691 | 0.017 | 282.2 |
| 2026-01-07T22:10 | 11.93017 | -117.02698 | 0.027 | 297.3 |
| 2026-01-07T22:20 | 11.93017 | -117.02701 | 0.010 | 263.6 |
| 2026-01-07T22:30 | 11.93005 | -117.02688 | 0.060 | 135.4 |
| 2026-01-07T22:40 | 11.93006 | -117.02690 | 0.007 | 321.8 |
| 2026-01-07T22:50 | 11.93019 | -117.02698 | 0.053 | 326.4 |
| 2026-01-07T23:00 | 11.93008 | -117.02684 | 0.062 | 129.1 |
| 2026-01-07T23:10 | 11.93016 | -117.02696 | 0.050 | 305.9 |
| 2026-01-07T23:20 | 11.93004 | -117.02691 | 0.045 | 155.4 |
| 2026-01-07T23:30 | 11.93016 | -117.02684 | 0.046 | 30.7 |
| 2026-01-07T23:40 | 11.93019 | -117.02692 | 0.032 | 291.1 |
| 2026-01-07T23:50 | 11.93008 | -117.02687 | 0.043 | 153.6 |
| 2026-01-08T00:00 | 11.93016 | -117.02688 | 0.030 | 353.8 |
| 2026-01-08T00:10 | 11.93014 | -117.02694 | 0.025 | 248.7 |
| 2026-01-08T00:20 | 11.93013 | -117.02694 | 0.003 | 113.5 |
| 2026-01-08T00:30 | 11.93004 | -117.02686 | 0.045 | 141.8 |
| 2026-01-08T00:40 | 11.93010 | -117.02691 | 0.030 | 325.0 |
| 2026-01-08T00:50 | 11.93010 | -117.02686 | 0.018 | 97.0 |
| 2026-01-08T01:00 | 11.93003 | -117.02687 | 0.025 | 193.2 |
| 2026-01-08T01:10 | 11.93010 | -117.02685 | 0.025 | 18.9 |
| 2026-01-08T01:20 | 11.93009 | -117.02692 | 0.025 | 265.2 |
| 2026-01-08T01:30 | 11.93016 | -117.02692 | 0.024 | 0.8 |
| 2026-01-08T01:40 | 11.93012 | -117.02694 | 0.016 | 211.2 |
| 2026-01-08T01:50 | 11.93016 | -117.02693 | 0.013 | 13.8 |
| 2026-01-08T02:00 | 11.93013 | -117.02677 | 0.060 | 100.7 |
| 2026-01-08T02:10 | 11.93002 | -117.02660 | 0.071 | 122.8 |
| 2026-01-08T02:20 | 11.93003 | -117.02661 | 0.006 | 308.0 |
| 2026-01-08T02:30 | 11.93000 | -117.02652 | 0.035 | 108.7 |
| 2026-01-08T02:40 | 11.92998 | -117.02656 | 0.014 | 251.8 |
| 2026-01-08T02:50 | 11.92996 | -117.02660 | 0.018 | 241.6 |
| 2026-01-08T03:00 | 11.92994 | -117.02665 | 0.019 | 250.9 |
| 2026-01-08T03:10 | 11.92996 | -117.02655 | 0.035 | 81.8 |
| 2026-01-08T03:20 | 11.93001 | -117.02652 | 0.023 | 28.2 |
| 2026-01-08T03:30 | 11.93005 | -117.02641 | 0.043 | 71.2 |
| 2026-01-08T03:40 | 11.93007 | -117.02639 | 0.008 | 27.3 |
| 2026-01-08T03:50 | 11.93003 | -117.02641 | 0.019 | 199.9 |
| 2026-01-08T04:00 | 11.92995 | -117.02638 | 0.029 | 159.4 |
| 2026-01-08T04:10 | 11.93009 | -117.02641 | 0.053 | 349.6 |
| 2026-01-08T04:20 | 11.93000 | -117.02640 | 0.034 | 171.2 |
| 2026-01-08T04:30 | 11.92997 | -117.02635 | 0.020 | 126.1 |
| 2026-01-08T04:40 | 11.92995 | -117.02640 | 0.020 | 254.2 |
| 2026-01-08T04:50 | 11.93007 | -117.02638 | 0.043 | 13.6 |
| 2026-01-08T05:00 | 11.93002 | -117.02648 | 0.040 | 241.7 |
| 2026-01-08T05:10 | 11.93010 | -117.02674 | 0.097 | 287.6 |
| 2026-01-08T05:20 | 11.93000 | -117.02671 | 0.037 | 166.7 |
| 2026-01-08T05:30 | 11.93013 | -117.02661 | 0.060 | 38.3 |
| 2026-01-08T05:40 | 11.93013 | -117.02677 | 0.058 | 268.6 |
| 2026-01-08T05:50 | 11.92996 | -117.02689 | 0.072 | 214.9 |
| 2026-01-08T06:00 | 11.92992 | -117.02686 | 0.017 | 140.5 |
| 2026-01-08T06:10 | 11.93011 | -117.02672 | 0.081 | 36.0 |
| 2026-01-08T06:20 | 11.93017 | -117.02670 | 0.022 | 19.3 |
| 2026-01-08T06:30 | 11.93016 | -117.02668 | 0.010 | 111.3 |
| 2026-01-08T06:40 | 11.93017 | -117.02674 | 0.022 | 287.2 |
| 2026-01-08T06:50 | 11.93008 | -117.02665 | 0.045 | 136.7 |
| 2026-01-08T07:00 | 11.93010 | -117.02670 | 0.020 | 290.4 |
| 2026-01-08T07:10 | 11.93012 | -117.02667 | 0.010 | 58.6 |
| 2026-01-08T07:20 | 11.93013 | -117.02659 | 0.029 | 80.8 |
| 2026-01-08T07:30 | 11.93018 | -117.02664 | 0.026 | 318.7 |
| 2026-01-08T07:40 | 11.93012 | -117.02665 | 0.024 | 188.6 |
| 2026-01-08T07:50 | 11.93007 | -117.02666 | 0.017 | 190.9 |
| 2026-01-08T08:00 | 11.93022 | -117.02663 | 0.054 | 11.7 |
| 2026-01-08T08:10 | 11.93018 | -117.02768 | 0.369 | 267.6 |
| 2026-01-08T08:20 | 11.93011 | -117.02768 | 0.023 | 180.9 |
| 2026-01-08T08:30 | 11.93009 | -117.02775 | 0.028 | 256.1 |
| 2026-01-08T08:40 | 11.93009 | -117.02775 | 0.000 | 135.4 |
| 2026-01-08T08:50 | 11.93009 | -117.02783 | 0.027 | 268.5 |
| 2026-01-08T09:00 | 11.93015 | -117.02780 | 0.022 | 27.9 |
| 2026-01-08T09:10 | 11.93015 | -117.02778 | 0.009 | 90.0 |
| 2026-01-08T09:20 | 11.93012 | -117.02781 | 0.015 | 238.9 |
| 2026-01-08T09:30 | 11.93018 | -117.02779 | 0.022 | 17.0 |
| 2026-01-08T09:40 | 11.93010 | -117.02776 | 0.030 | 157.4 |
| 2026-01-08T09:50 | 11.93018 | -117.02775 | 0.029 | 9.2 |
| 2026-01-08T10:00 | 11.93008 | -117.02783 | 0.046 | 217.1 |
| 2026-01-08T10:10 | 11.93020 | -117.02777 | 0.049 | 25.7 |
| 2026-01-08T10:20 | 11.93012 | -117.02774 | 0.030 | 161.4 |
| 2026-01-08T10:30 | 11.93015 | -117.02775 | 0.011 | 343.5 |
| 2026-01-08T10:40 | 11.93015 | -117.02787 | 0.041 | 266.0 |
| 2026-01-08T10:50 | 11.93012 | -117.02774 | 0.044 | 102.3 |
| 2026-01-08T11:00 | 11.93008 | -117.02781 | 0.025 | 237.9 |
| 2026-01-08T11:10 | 11.93039 | -117.02502 | 0.989 | 83.6 |
| 2026-01-08T11:20 | 11.93078 | -117.02471 | 0.176 | 38.3 |
| 2026-01-08T11:30 | 11.93079 | -117.02472 | 0.005 | 330.1 |
| 2026-01-08T11:40 | 11.93065 | -117.02477 | 0.051 | 203.0 |
| 2026-01-08T11:50 | 11.93076 | -117.02471 | 0.043 | 30.2 |
| 2026-01-08T12:00 | 11.93064 | -117.02470 | 0.042 | 173.8 |
| 2026-01-08T12:10 | 11.93066 | -117.02473 | 0.014 | 304.1 |
| 2026-01-08T12:20 | 11.93080 | -117.02472 | 0.051 | 6.3 |
| 2026-01-08T12:30 | 11.93077 | -117.02472 | 0.012 | 183.4 |
| 2026-01-08T12:40 | 11.93080 | -117.02466 | 0.023 | 67.1 |
| 2026-01-08T12:50 | 11.93081 | -117.02473 | 0.025 | 281.6 |
| 2026-01-08T13:00 | 11.93076 | -117.02472 | 0.017 | 173.0 |
| 2026-01-08T13:10 | 11.93075 | -117.02474 | 0.007 | 235.1 |
| 2026-01-08T13:20 | 11.93077 | -117.02469 | 0.016 | 68.1 |
| 2026-01-08T13:30 | 11.93080 | -117.02472 | 0.014 | 313.4 |
| 2026-01-08T13:40 | 11.93085 | -117.02468 | 0.026 | 35.7 |
| 2026-01-08T13:50 | 11.93109 | -117.02470 | 0.086 | 356.2 |
| 2026-01-08T14:00 | 11.93111 | -117.02472 | 0.009 | 300.1 |
| 2026-01-08T14:10 | 11.93109 | -117.02470 | 0.008 | 119.2 |
| 2026-01-08T14:20 | 11.93110 | -117.02474 | 0.015 | 272.8 |
| 2026-01-08T14:30 | 11.93112 | -117.02471 | 0.012 | 55.4 |
| 2026-01-08T14:40 | 11.93110 | -117.02468 | 0.013 | 108.7 |
| 2026-01-08T14:50 | 11.93102 | -117.02472 | 0.032 | 206.5 |
| 2026-01-08T15:00 | 11.93111 | -117.02474 | 0.030 | 342.2 |
| 2026-01-08T15:10 | 11.93111 | -117.02474 | 0.001 | 270.0 |
| 2026-01-08T15:20 | 11.93121 | -117.02477 | 0.041 | 346.4 |
| 2026-01-08T15:30 | 11.93124 | -117.02485 | 0.028 | 285.7 |
| 2026-01-08T15:40 | 11.93130 | -117.02487 | 0.025 | 339.0 |
| 2026-01-08T15:50 | 11.93128 | -117.02488 | 0.008 | 205.1 |
| 2026-01-08T16:00 | 11.93133 | -117.02483 | 0.026 | 49.6 |
| 2026-01-08T16:10 | 11.93126 | -117.02484 | 0.023 | 194.9 |
| 2026-01-08T16:20 | 11.93135 | -117.02491 | 0.039 | 322.5 |
| 2026-01-08T16:30 | 11.93131 | -117.02490 | 0.014 | 157.7 |
| 2026-01-08T16:40 | 11.93133 | -117.02489 | 0.006 | 23.3 |
| 2026-01-08T16:50 | 11.93133 | -117.02488 | 0.005 | 67.1 |
| 2026-01-08T17:00 | 11.93131 | -117.02489 | 0.008 | 205.1 |
| 2026-01-08T17:10 | 11.93128 | -117.02485 | 0.019 | 131.7 |
| 2026-01-08T17:20 | 11.93124 | -117.02490 | 0.023 | 232.2 |
| 2026-01-08T17:30 | 11.93125 | -117.02490 | 0.006 | 336.7 |
| 2026-01-08T17:40 | 11.93127 | -117.02483 | 0.027 | 74.7 |
| 2026-01-08T17:50 | 11.93133 | -117.02493 | 0.039 | 299.7 |
| 2026-01-08T18:00 | 11.93125 | -117.02485 | 0.038 | 135.8 |
| 2026-01-08T18:10 | 11.93128 | -117.02490 | 0.019 | 303.5 |
| 2026-01-08T18:20 | 11.93134 | -117.02490 | 0.019 | 352.6 |
| 2026-01-08T18:30 | 11.93125 | -117.02487 | 0.033 | 155.7 |
| 2026-01-08T18:40 | 11.93129 | -117.02488 | 0.015 | 338.5 |
| 2026-01-08T18:50 | 11.93128 | -117.02484 | 0.013 | 108.7 |
| 2026-01-08T19:00 | 11.93124 | -117.02485 | 0.014 | 191.7 |
| 2026-01-08T19:10 | 11.93126 | -117.02493 | 0.027 | 287.7 |
| 2026-01-08T19:20 | 11.93123 | -117.02484 | 0.032 | 110.5 |
| 2026-01-08T19:30 | 11.93124 | -117.02490 | 0.022 | 276.6 |
| 2026-01-08T19:40 | 11.93124 | -117.02484 | 0.021 | 88.1 |
| 2026-01-08T19:50 | 11.93129 | -117.02489 | 0.025 | 319.5 |
| 2026-01-08T20:00 | 11.93125 | -117.02485 | 0.022 | 142.1 |
| 2026-01-08T20:10 | 11.93126 | -117.02491 | 0.023 | 285.1 |
| 2026-01-08T20:20 | 11.93130 | -117.02492 | 0.015 | 358.6 |
| 2026-01-08T20:30 | 11.93098 | -117.02499 | 0.117 | 192.9 |
| 2026-01-08T20:40 | 11.93098 | -117.02496 | 0.011 | 101.5 |
| 2026-01-08T20:50 | 11.93099 | -117.02503 | 0.024 | 281.0 |
| 2026-01-08T21:00 | 11.93099 | -117.02503 | 0.001 | 180.0 |
| 2026-01-08T21:10 | 11.93098 | -117.02499 | 0.014 | 112.9 |
| 2026-01-08T21:20 | 11.93101 | -117.02505 | 0.023 | 302.6 |
| 2026-01-08T21:30 | 11.93102 | -117.02505 | 0.006 | 342.9 |
| 2026-01-08T21:40 | 11.93098 | -117.02502 | 0.018 | 142.7 |
| 2026-01-08T21:50 | 11.93094 | -117.02500 | 0.019 | 154.7 |
| 2026-01-08T22:00 | 11.93116 | -117.02483 | 0.099 | 37.1 |
| 2026-01-08T22:10 | 11.93114 | -117.02483 | 0.007 | 203.6 |
| 2026-01-08T22:20 | 11.93114 | -117.02483 | 0.001 | 0.0 |
| 2026-01-08T22:30 | 11.93111 | -117.02476 | 0.031 | 114.8 |
| 2026-01-08T22:40 | 11.93102 | -117.02475 | 0.030 | 177.3 |
| 2026-01-08T22:50 | 11.93109 | -117.02456 | 0.073 | 71.7 |
| 2026-01-08T23:00 | 11.93110 | -117.02456 | 0.006 | 339.7 |
| 2026-01-08T23:10 | 11.93107 | -117.02462 | 0.022 | 241.0 |
| 2026-01-08T23:20 | 11.93108 | -117.02463 | 0.004 | 296.9 |
| 2026-01-08T23:30 | 11.93104 | -117.02461 | 0.016 | 159.0 |
| 2026-01-08T23:40 | 11.93106 | -117.02455 | 0.021 | 70.1 |
| 2026-01-08T23:50 | 11.93104 | -117.02457 | 0.009 | 212.6 |
| 2026-01-09T00:00 | 11.93107 | -117.02458 | 0.012 | 330.6 |
| 2026-01-09T00:10 | 11.93106 | -117.02456 | 0.008 | 113.5 |
| 2026-01-09T00:20 | 11.93105 | -117.02460 | 0.013 | 252.8 |
| 2026-01-09T00:30 | 11.93107 | -117.02456 | 0.014 | 57.9 |
| 2026-01-09T00:40 | 11.93109 | -117.02460 | 0.015 | 304.5 |
| 2026-01-09T00:50 | 11.93106 | -117.02460 | 0.011 | 176.5 |
| 2026-01-09T01:00 | 11.93114 | -117.02461 | 0.031 | 350.1 |
| 2026-01-09T01:10 | 11.93109 | -117.02455 | 0.028 | 131.3 |
| 2026-01-09T01:20 | 11.93113 | -117.02461 | 0.025 | 300.5 |
| 2026-01-09T01:30 | 11.93104 | -117.02456 | 0.037 | 150.8 |
| 2026-01-09T01:40 | 11.93112 | -117.02461 | 0.035 | 329.4 |
| 2026-01-09T01:50 | 11.93109 | -117.02457 | 0.019 | 124.1 |
| 2026-01-09T02:00 | 11.93111 | -117.02461 | 0.018 | 294.4 |
| 2026-01-09T02:10 | 11.93126 | -117.02475 | 0.072 | 318.6 |
| 2026-01-09T02:20 | 11.93131 | -117.02481 | 0.026 | 308.9 |
| 2026-01-09T02:30 | 11.93131 | -117.02478 | 0.011 | 91.8 |
| 2026-01-09T02:40 | 11.93130 | -117.02480 | 0.010 | 252.7 |
| 2026-01-09T02:50 | 11.93126 | -117.02480 | 0.017 | 172.7 |
| 2026-01-09T03:00 | 11.93131 | -117.02476 | 0.023 | 34.3 |
| 2026-01-09T03:10 | 11.93126 | -117.02477 | 0.018 | 186.9 |
| 2026-01-09T03:20 | 11.93131 | -117.02475 | 0.021 | 14.5 |
| 2026-01-09T03:30 | 11.93126 | -117.02480 | 0.027 | 218.7 |
| 2026-01-09T03:40 | 11.93132 | -117.02476 | 0.027 | 29.6 |
| 2026-01-09T03:50 | 11.93124 | -117.02471 | 0.035 | 149.6 |
| 2026-01-09T04:00 | 11.93099 | -117.02509 | 0.160 | 236.1 |
| 2026-01-09T04:10 | 11.93094 | -117.02505 | 0.022 | 146.7 |
| 2026-01-09T04:20 | 11.93113 | -117.02488 | 0.090 | 41.0 |
| 2026-01-09T04:30 | 11.93126 | -117.02479 | 0.057 | 33.9 |
| 2026-01-09T04:40 | 11.93127 | -117.02475 | 0.015 | 70.4 |
| 2026-01-09T04:50 | 11.93099 | -117.02509 | 0.157 | 229.4 |
| 2026-01-09T05:00 | 11.93092 | -117.02508 | 0.025 | 165.2 |
| 2026-01-09T05:10 | 11.93098 | -117.02507 | 0.021 | 6.9 |
| 2026-01-09T05:20 | 11.93093 | -117.02504 | 0.021 | 147.0 |
| 2026-01-09T05:30 | 11.93090 | -117.02508 | 0.018 | 237.8 |
| 2026-01-09T05:40 | 11.93093 | -117.02509 | 0.009 | 341.8 |
| 2026-01-09T05:50 | 11.93096 | -117.02509 | 0.010 | 356.1 |
| 2026-01-09T06:00 | 11.93089 | -117.02505 | 0.027 | 151.5 |
| 2026-01-09T06:10 | 11.93092 | -117.02513 | 0.031 | 291.2 |
| 2026-01-09T06:20 | 11.93096 | -117.02510 | 0.018 | 33.6 |
| 2026-01-09T06:30 | 11.93097 | -117.02517 | 0.025 | 279.7 |
| 2026-01-09T06:40 | 11.93098 | -117.02515 | 0.007 | 70.4 |
| 2026-01-09T06:50 | 11.93110 | -117.02531 | 0.070 | 307.0 |
| 2026-01-09T07:00 | 11.93163 | -117.02586 | 0.273 | 314.7 |
| 2026-01-09T07:10 | 11.93180 | -117.02614 | 0.115 | 301.0 |
| 2026-01-09T07:20 | 11.93176 | -117.02728 | 0.402 | 267.9 |
| 2026-01-09T07:30 | 11.93168 | -117.02810 | 0.291 | 264.5 |
| 2026-01-09T07:40 | 11.93212 | -117.02849 | 0.210 | 319.4 |
| 2026-01-09T07:50 | 11.93255 | -117.02958 | 0.412 | 291.6 |
| 2026-01-09T08:00 | 11.93236 | -117.03043 | 0.309 | 257.1 |
| 2026-01-09T08:10 | 11.93249 | -117.03111 | 0.245 | 281.3 |
| 2026-01-09T08:20 | 11.93261 | -117.03092 | 0.081 | 57.3 |
| 2026-01-09T08:30 | 11.93259 | -117.03096 | 0.017 | 240.5 |
| 2026-01-09T08:40 | 11.93257 | -117.03088 | 0.031 | 104.7 |
| 2026-01-09T08:50 | 11.93260 | -117.03091 | 0.016 | 322.6 |
| 2026-01-09T09:00 | 11.93257 | -117.03091 | 0.014 | 192.0 |
| 2026-01-09T09:10 | 11.93255 | -117.03092 | 0.007 | 212.5 |
| 2026-01-09T09:20 | 11.93262 | -117.03093 | 0.024 | 357.5 |
| 2026-01-09T09:30 | 11.93259 | -117.03089 | 0.017 | 125.4 |
| 2026-01-09T09:40 | 11.93260 | -117.03094 | 0.018 | 287.3 |
| 2026-01-09T09:50 | 11.93254 | -117.03089 | 0.027 | 147.1 |
| 2026-01-09T10:00 | 11.93261 | -117.03091 | 0.025 | 349.6 |
| 2026-01-09T10:10 | 11.93262 | -117.03093 | 0.010 | 290.6 |
| 2026-01-09T10:20 | 11.93257 | -117.03087 | 0.028 | 125.5 |
| 2026-01-09T10:30 | 11.93254 | -117.03087 | 0.013 | 176.8 |
| 2026-01-09T10:40 | 11.93250 | -117.03085 | 0.016 | 155.5 |
| 2026-01-09T10:50 | 11.93254 | -117.03091 | 0.026 | 303.0 |
| 2026-01-09T11:00 | 11.93248 | -117.03084 | 0.032 | 126.9 |
| 2026-01-09T11:10 | 11.93254 | -117.03093 | 0.039 | 304.5 |
| 2026-01-09T11:20 | 11.93250 | -117.03089 | 0.020 | 139.8 |
| 2026-01-09T11:30 | 11.93296 | -117.03050 | 0.214 | 40.0 |
| 2026-01-09T11:40 | 11.93434 | -117.02698 | 1.338 | 68.3 |
| 2026-01-09T11:50 | 11.93406 | -117.02638 | 0.234 | 116.0 |
| 2026-01-09T12:00 | 11.93401 | -117.02639 | 0.017 | 186.1 |
| 2026-01-09T12:10 | 11.93402 | -117.02641 | 0.009 | 279.6 |
| 2026-01-09T12:20 | 11.93403 | -117.02643 | 0.008 | 301.4 |
| 2026-01-09T12:30 | 11.93403 | -117.02644 | 0.003 | 315.4 |
| 2026-01-09T12:40 | 11.93404 | -117.02647 | 0.012 | 290.3 |
| 2026-01-09T12:50 | 11.93409 | -117.02642 | 0.024 | 41.5 |
| 2026-01-09T13:00 | 11.93408 | -117.02645 | 0.012 | 238.3 |
| 2026-01-09T13:10 | 11.93408 | -117.02642 | 0.013 | 90.0 |
| 2026-01-09T13:20 | 11.93407 | -117.02637 | 0.016 | 104.6 |
| 2026-01-09T13:30 | 11.93403 | -117.02638 | 0.014 | 195.9 |
| 2026-01-09T13:40 | 11.93405 | -117.02642 | 0.013 | 300.3 |
| 2026-01-09T13:50 | 11.93408 | -117.02646 | 0.020 | 303.8 |
| 2026-01-09T14:00 | 11.93407 | -117.02639 | 0.026 | 100.2 |
| 2026-01-09T14:10 | 11.93407 | -117.02640 | 0.005 | 278.2 |
| 2026-01-09T14:20 | 11.93405 | -117.02641 | 0.008 | 190.2 |
| 2026-01-09T14:30 | 11.93404 | -117.02638 | 0.010 | 110.6 |
| 2026-01-09T14:40 | 11.93398 | -117.02639 | 0.021 | 183.9 |
| 2026-01-09T14:50 | 11.93407 | -117.02638 | 0.034 | 1.8 |
| 2026-01-09T15:00 | 11.93406 | -117.02640 | 0.008 | 248.8 |
| 2026-01-09T15:10 | 11.93402 | -117.02636 | 0.022 | 140.0 |
| 2026-01-09T15:20 | 11.93402 | -117.02646 | 0.035 | 274.1 |
| 2026-01-09T15:30 | 11.93131 | -117.02561 | 1.017 | 162.9 |
| 2026-01-09T15:40 | 11.93006 | -117.02852 | 1.119 | 246.5 |
| 2026-01-09T15:50 | 11.93016 | -117.02837 | 0.063 | 56.3 |
| 2026-01-09T16:00 | 11.93016 | -117.02843 | 0.018 | 270.0 |
| 2026-01-09T16:10 | 11.93011 | -117.02841 | 0.020 | 160.2 |
| 2026-01-09T16:20 | 11.93021 | -117.02841 | 0.034 | 359.4 |
| 2026-01-09T16:30 | 11.93005 | -117.02844 | 0.057 | 189.7 |
| 2026-01-09T16:40 | 11.93009 | -117.02835 | 0.034 | 64.7 |
| 2026-01-09T16:50 | 11.93020 | -117.02846 | 0.056 | 314.1 |
| 2026-01-09T17:00 | 11.93009 | -117.02822 | 0.094 | 114.8 |
| 2026-01-09T17:10 | 11.93015 | -117.02813 | 0.039 | 55.0 |
| 2026-01-09T17:20 | 11.93012 | -117.02746 | 0.236 | 92.3 |
| 2026-01-09T17:30 | 11.93015 | -117.02761 | 0.054 | 280.7 |
| 2026-01-09T17:40 | 11.93021 | -117.02752 | 0.039 | 55.6 |
| 2026-01-09T17:50 | 11.93020 | -117.02747 | 0.018 | 108.3 |
| 2026-01-09T18:00 | 11.93022 | -117.02752 | 0.018 | 294.4 |
| 2026-01-09T18:10 | 11.93027 | -117.02759 | 0.032 | 305.0 |
| 2026-01-09T18:20 | 11.93035 | -117.02757 | 0.030 | 12.7 |
| 2026-01-09T18:30 | 11.93049 | -117.02764 | 0.053 | 335.5 |
| 2026-01-09T18:40 | 11.93058 | -117.02763 | 0.035 | 2.9 |
| 2026-01-09T18:50 | 11.93066 | -117.02785 | 0.083 | 289.7 |
| 2026-01-09T19:00 | 11.93091 | -117.02808 | 0.121 | 317.6 |
| 2026-01-09T19:10 | 11.93085 | -117.02809 | 0.022 | 187.5 |
| 2026-01-09T19:20 | 11.93093 | -117.02808 | 0.029 | 5.6 |
| 2026-01-09T19:30 | 11.93083 | -117.02810 | 0.038 | 192.2 |
| 2026-01-09T19:40 | 11.93091 | -117.02804 | 0.037 | 35.9 |
| 2026-01-09T19:50 | 11.93085 | -117.02801 | 0.024 | 150.4 |
| 2026-01-09T20:00 | 11.93078 | -117.02803 | 0.026 | 193.3 |
| 2026-01-09T20:10 | 11.93077 | -117.02806 | 0.012 | 252.4 |
| 2026-01-09T20:20 | 11.93082 | -117.02804 | 0.020 | 18.2 |
| 2026-01-09T20:30 | 11.93093 | -117.02809 | 0.042 | 336.8 |
| 2026-01-09T20:40 | 11.93084 | -117.02800 | 0.045 | 138.7 |
| 2026-01-09T20:50 | 11.93076 | -117.02805 | 0.032 | 209.3 |
| 2026-01-09T21:00 | 11.93076 | -117.02807 | 0.009 | 277.2 |
| 2026-01-09T21:10 | 11.93091 | -117.02805 | 0.055 | 8.2 |
| 2026-01-09T21:20 | 11.93082 | -117.02807 | 0.035 | 193.3 |
| 2026-01-09T21:30 | 11.93081 | -117.02810 | 0.012 | 251.9 |
| 2026-01-09T21:40 | 11.93077 | -117.02807 | 0.018 | 131.5 |
| 2026-01-09T21:50 | 11.93084 | -117.02817 | 0.045 | 303.6 |
| 2026-01-09T22:00 | 11.93080 | -117.02807 | 0.039 | 110.5 |
| 2026-01-09T22:10 | 11.93001 | -117.01879 | 3.285 | 94.9 |
| 2026-01-09T22:20 | 11.92804 | -117.01659 | 1.050 | 132.2 |
| 2026-01-09T22:30 | 11.92704 | -117.01490 | 0.695 | 121.0 |
| 2026-01-09T22:40 | 11.92702 | -117.01485 | 0.019 | 115.0 |
| 2026-01-09T22:50 | 11.92711 | -117.01496 | 0.051 | 307.5 |
| 2026-01-09T23:00 | 11.92605 | -117.01453 | 0.407 | 158.1 |
| 2026-01-09T23:10 | 11.92608 | -117.01462 | 0.032 | 287.9 |
| 2026-01-09T23:20 | 11.92225 | -117.01300 | 1.485 | 157.4 |
| 2026-01-09T23:30 | 11.90922 | -117.01189 | 4.685 | 175.2 |
| 2026-01-09T23:40 | 11.91220 | -117.01025 | 1.213 | 28.5 |
| 2026-01-09T23:50 | 11.91253 | -117.00971 | 0.223 | 57.6 |
| 2026-01-10T00:00 | 11.91262 | -117.00954 | 0.070 | 62.3 |
| 2026-01-10T00:10 | 11.91258 | -117.00935 | 0.070 | 103.1 |
| 2026-01-10T00:20 | 11.92415 | -117.00041 | 5.206 | 37.2 |
| 2026-01-10T00:30 | 11.92510 | -116.99911 | 0.572 | 53.4 |
| 2026-01-10T00:40 | 11.94495 | -117.00453 | 7.364 | 344.9 |
| 2026-01-10T00:50 | 11.95997 | -117.00415 | 5.380 | 1.4 |
| 2026-01-10T01:00 | 11.95938 | -117.00455 | 0.255 | 213.8 |
| 2026-01-10T01:10 | 11.95739 | -117.00091 | 1.470 | 119.0 |
| 2026-01-10T01:20 | 11.93763 | -117.01820 | 9.342 | 220.8 |
| 2026-01-10T01:30 | 11.92997 | -117.02882 | 4.644 | 233.8 |
| 2026-01-10T01:40 | 11.93040 | -117.02818 | 0.272 | 56.0 |
| 2026-01-10T01:50 | 11.93073 | -117.02822 | 0.118 | 353.3 |
| 2026-01-10T02:00 | 11.93080 | -117.02817 | 0.032 | 33.8 |
| 2026-01-10T02:10 | 11.93066 | -117.02814 | 0.051 | 165.1 |
| 2026-01-10T02:20 | 11.93070 | -117.02811 | 0.015 | 31.8 |
| 2026-01-10T02:30 | 11.93070 | -117.02822 | 0.037 | 272.2 |
| 2026-01-10T02:40 | 11.93087 | -117.02810 | 0.073 | 33.7 |
| 2026-01-10T02:50 | 11.93087 | -117.02811 | 0.003 | 245.7 |
| 2026-01-10T03:00 | 11.93089 | -117.02810 | 0.010 | 34.4 |
| 2026-01-10T03:10 | 11.93088 | -117.02810 | 0.007 | 207.5 |
| 2026-01-10T03:20 | 11.93090 | -117.02809 | 0.011 | 32.8 |
| 2026-01-10T03:30 | 11.93085 | -117.02813 | 0.022 | 222.6 |
| 2026-01-10T03:40 | 11.93088 | -117.02802 | 0.041 | 76.2 |
| 2026-01-10T03:50 | 11.93087 | -117.02812 | 0.036 | 260.4 |
| 2026-01-10T04:00 | 11.93083 | -117.02801 | 0.040 | 108.2 |
| 2026-01-10T04:10 | 11.93086 | -117.02801 | 0.010 | 4.0 |
| 2026-01-10T04:20 | 11.93084 | -117.02801 | 0.008 | 190.6 |
| 2026-01-10T04:30 | 11.93076 | -117.02793 | 0.040 | 133.3 |
| 2026-01-10T04:40 | 11.93086 | -117.02797 | 0.038 | 340.2 |
| 2026-01-10T04:50 | 11.93083 | -117.02793 | 0.019 | 131.7 |
| 2026-01-10T05:00 | 11.93078 | -117.02800 | 0.028 | 237.9 |
| 2026-01-10T05:10 | 11.93084 | -117.02787 | 0.048 | 62.5 |
| 2026-01-10T05:20 | 11.93079 | -117.02791 | 0.023 | 214.5 |
| 2026-01-10T05:30 | 11.93080 | -117.02790 | 0.006 | 56.9 |
| 2026-01-10T05:40 | 11.93077 | -117.02786 | 0.016 | 130.9 |
| 2026-01-10T05:50 | 11.93077 | -117.02782 | 0.017 | 92.5 |
| 2026-01-10T06:00 | 11.93078 | -117.02792 | 0.037 | 272.8 |
| 2026-01-10T06:10 | 11.93072 | -117.02787 | 0.027 | 140.3 |
| 2026-01-10T06:20 | 11.93076 | -117.02791 | 0.019 | 319.1 |
| 2026-01-10T06:30 | 11.93075 | -117.02784 | 0.026 | 98.6 |
| 2026-01-10T06:40 | 11.93081 | -117.02793 | 0.038 | 303.4 |
| 2026-01-10T06:50 | 11.93074 | -117.02784 | 0.038 | 129.7 |
| 2026-01-10T07:00 | 11.93074 | -117.02785 | 0.002 | 348.9 |
| 2026-01-10T07:10 | 11.93083 | -117.02790 | 0.036 | 329.8 |
| 2026-01-10T07:20 | 11.93075 | -117.02745 | 0.160 | 100.0 |
| 2026-01-10T07:30 | 11.93083 | -117.02736 | 0.043 | 52.0 |
| 2026-01-10T07:40 | 11.93082 | -117.02745 | 0.034 | 264.0 |
| 2026-01-10T07:50 | 11.93079 | -117.02733 | 0.046 | 104.8 |
| 2026-01-10T08:00 | 11.93085 | -117.02746 | 0.053 | 296.8 |
| 2026-01-10T08:10 | 11.93080 | -117.02734 | 0.045 | 111.3 |
| 2026-01-10T08:20 | 11.93090 | -117.02743 | 0.048 | 314.5 |
| 2026-01-10T08:30 | 11.93075 | -117.02738 | 0.056 | 160.8 |
| 2026-01-10T08:40 | 11.93081 | -117.02733 | 0.029 | 38.6 |
| 2026-01-10T08:50 | 11.93082 | -117.02737 | 0.016 | 283.3 |
| 2026-01-10T09:00 | 11.93088 | -117.02739 | 0.020 | 343.4 |
| 2026-01-10T09:10 | 11.93080 | -117.02733 | 0.034 | 138.8 |
| 2026-01-10T09:20 | 11.93086 | -117.02740 | 0.032 | 304.6 |
| 2026-01-10T09:30 | 11.93076 | -117.02734 | 0.039 | 149.3 |
| 2026-01-10T09:40 | 11.93089 | -117.02738 | 0.048 | 343.3 |
| 2026-01-10T09:50 | 11.93082 | -117.02735 | 0.027 | 156.8 |
| 2026-01-10T10:00 | 11.93083 | -117.02742 | 0.022 | 273.8 |
| 2026-01-10T10:10 | 11.93084 | -117.02737 | 0.017 | 69.7 |
| 2026-01-10T10:20 | 11.93108 | -117.02612 | 0.449 | 79.0 |
| 2026-01-10T10:30 | 11.93135 | -117.02470 | 0.509 | 79.2 |
| 2026-01-10T10:40 | 11.93143 | -117.02472 | 0.030 | 346.5 |
| 2026-01-10T10:50 | 11.93148 | -117.02471 | 0.019 | 10.9 |
| 2026-01-10T11:00 | 11.93141 | -117.02472 | 0.024 | 185.0 |
| 2026-01-10T11:10 | 11.93139 | -117.02474 | 0.009 | 215.1 |
| 2026-01-10T11:20 | 11.93144 | -117.02467 | 0.029 | 52.6 |
| 2026-01-10T11:30 | 11.93142 | -117.02475 | 0.030 | 255.6 |
| 2026-01-10T11:40 | 11.93139 | -117.02466 | 0.034 | 111.2 |
| 2026-01-10T11:50 | 11.93143 | -117.02471 | 0.021 | 313.4 |
| 2026-01-10T12:00 | 11.93143 | -117.02470 | 0.002 | 44.6 |
| 2026-01-10T12:10 | 11.93143 | -117.02467 | 0.012 | 90.0 |
| 2026-01-10T12:20 | 11.93149 | -117.02472 | 0.026 | 319.2 |
| 2026-01-10T12:30 | 11.93146 | -117.02467 | 0.019 | 120.3 |
| 2026-01-10T12:40 | 11.93144 | -117.02477 | 0.036 | 255.1 |
| 2026-01-10T12:50 | 11.93140 | -117.02471 | 0.023 | 119.3 |
| 2026-01-10T13:00 | 11.93144 | -117.02475 | 0.019 | 312.4 |
| 2026-01-10T13:10 | 11.93147 | -117.02477 | 0.011 | 329.7 |
| 2026-01-10T13:20 | 11.93146 | -117.02467 | 0.036 | 95.1 |
| 2026-01-10T13:30 | 11.93139 | -117.02476 | 0.042 | 231.8 |
| 2026-01-10T13:40 | 11.93146 | -117.02469 | 0.035 | 39.7 |
| 2026-01-10T13:50 | 11.93145 | -117.02472 | 0.010 | 258.1 |
| 2026-01-10T14:00 | 11.93137 | -117.02467 | 0.037 | 146.4 |
| 2026-01-10T14:10 | 11.93143 | -117.02467 | 0.023 | 354.6 |
| 2026-01-10T14:20 | 11.93139 | -117.02469 | 0.018 | 204.2 |
| 2026-01-10T14:30 | 11.93141 | -117.02463 | 0.025 | 72.3 |
| 2026-01-10T14:40 | 11.93135 | -117.02464 | 0.023 | 191.7 |
| 2026-01-10T14:50 | 11.93135 | -117.02461 | 0.011 | 90.0 |
| 2026-01-10T15:00 | 11.93140 | -117.02463 | 0.023 | 338.5 |
| 2026-01-10T15:10 | 11.93137 | -117.02461 | 0.013 | 148.1 |
| 2026-01-10T15:20 | 11.93137 | -117.02466 | 0.016 | 259.8 |
| 2026-01-10T15:30 | 11.93130 | -117.02461 | 0.031 | 144.3 |
| 2026-01-10T15:40 | 11.93107 | -117.02462 | 0.080 | 182.5 |
| 2026-01-10T15:50 | 11.93104 | -117.02457 | 0.019 | 125.0 |
| 2026-01-10T16:00 | 11.93114 | -117.02459 | 0.034 | 348.7 |
| 2026-01-10T16:10 | 11.93098 | -117.02459 | 0.056 | 178.9 |
| 2026-01-10T16:20 | 11.93097 | -117.02458 | 0.006 | 145.7 |
| 2026-01-10T16:30 | 11.93104 | -117.02460 | 0.026 | 342.1 |
| 2026-01-10T16:40 | 11.93107 | -117.02461 | 0.011 | 343.0 |
| 2026-01-10T16:50 | 11.93102 | -117.02464 | 0.018 | 214.2 |
| 2026-01-10T17:00 | 11.93098 | -117.02457 | 0.028 | 121.5 |
| 2026-01-10T17:10 | 11.93101 | -117.02455 | 0.010 | 37.3 |
| 2026-01-10T17:20 | 11.93097 | -117.02461 | 0.025 | 235.4 |
| 2026-01-10T17:30 | 11.93091 | -117.02457 | 0.024 | 142.7 |
| 2026-01-10T17:40 | 11.93091 | -117.02463 | 0.019 | 270.0 |
| 2026-01-10T17:50 | 11.93097 | -117.02462 | 0.022 | 2.8 |
| 2026-01-10T18:00 | 11.93098 | -117.02459 | 0.013 | 78.8 |
| 2026-01-10T18:10 | 11.93096 | -117.02463 | 0.018 | 247.2 |
| 2026-01-10T18:20 | 11.93095 | -117.02461 | 0.009 | 116.9 |
| 2026-01-10T18:30 | 11.93090 | -117.02460 | 0.017 | 162.6 |
| 2026-01-10T18:40 | 11.93091 | -117.02462 | 0.009 | 286.5 |
| 2026-01-10T18:50 | 11.93097 | -117.02466 | 0.024 | 325.8 |
| 2026-01-10T19:00 | 11.93090 | -117.02462 | 0.026 | 152.4 |
| 2026-01-10T19:10 | 11.93094 | -117.02466 | 0.019 | 318.4 |
| 2026-01-10T19:20 | 11.93090 | -117.02462 | 0.020 | 133.3 |
| 2026-01-10T19:30 | 11.93093 | -117.02461 | 0.009 | 16.7 |
| 2026-01-10T19:40 | 11.93096 | -117.02457 | 0.018 | 48.5 |
| 2026-01-10T19:50 | 11.93100 | -117.02459 | 0.016 | 339.9 |
| 2026-01-10T20:00 | 11.93101 | -117.02461 | 0.010 | 285.3 |
| 2026-01-10T20:10 | 11.93101 | -117.02460 | 0.004 | 84.7 |
| 2026-01-10T20:20 | 11.93098 | -117.02458 | 0.015 | 147.1 |
| 2026-01-10T20:30 | 11.93100 | -117.02458 | 0.007 | 3.0 |
| 2026-01-10T20:40 | 11.93097 | -117.02464 | 0.022 | 245.2 |
| 2026-01-10T20:50 | 11.93100 | -117.02453 | 0.040 | 72.4 |
| 2026-01-10T21:00 | 11.93103 | -117.02463 | 0.039 | 282.7 |
| 2026-01-10T21:10 | 11.93102 | -117.02459 | 0.015 | 94.2 |
| 2026-01-10T21:20 | 11.93100 | -117.02458 | 0.009 | 156.8 |
| 2026-01-10T21:30 | 11.93105 | -117.02460 | 0.019 | 338.1 |
| 2026-01-10T21:40 | 11.93102 | -117.02460 | 0.009 | 173.5 |
| 2026-01-10T21:50 | 11.93100 | -117.02459 | 0.010 | 163.7 |
| 2026-01-10T22:00 | 11.93069 | -117.02447 | 0.117 | 159.1 |
| 2026-01-10T22:10 | 11.93067 | -117.02441 | 0.024 | 110.5 |
| 2026-01-10T22:20 | 11.93067 | -117.02438 | 0.011 | 86.2 |
| 2026-01-10T22:30 | 11.93078 | -117.02442 | 0.042 | 337.2 |
| 2026-01-10T22:40 | 11.93070 | -117.02436 | 0.036 | 143.8 |
| 2026-01-10T22:50 | 11.93075 | -117.02438 | 0.019 | 336.7 |
| 2026-01-10T23:00 | 11.93066 | -117.02440 | 0.030 | 191.0 |
| 2026-01-10T23:10 | 11.93068 | -117.02437 | 0.013 | 57.2 |
| 2026-01-10T23:20 | 11.93077 | -117.02439 | 0.031 | 346.6 |
| 2026-01-10T23:30 | 11.93075 | -117.02436 | 0.013 | 119.1 |
| 2026-01-10T23:40 | 11.93073 | -117.02442 | 0.022 | 252.2 |
| 2026-01-10T23:50 | 11.93075 | -117.02443 | 0.007 | 339.1 |
| 2026-01-11T00:00 | 11.93065 | -117.02437 | 0.041 | 153.1 |
| 2026-01-11T00:10 | 11.93065 | -117.02442 | 0.015 | 270.0 |
| 2026-01-11T00:20 | 11.93066 | -117.02446 | 0.017 | 286.0 |
| 2026-01-11T00:30 | 11.93067 | -117.02445 | 0.005 | 57.1 |
| 2026-01-11T00:40 | 11.93063 | -117.02439 | 0.024 | 121.5 |
| 2026-01-11T00:50 | 11.93063 | -117.02443 | 0.014 | 267.2 |
| 2026-01-11T01:00 | 11.93066 | -117.02439 | 0.019 | 52.9 |
| 2026-01-11T01:10 | 11.93070 | -117.02440 | 0.015 | 350.5 |
| 2026-01-11T01:20 | 11.93063 | -117.02440 | 0.026 | 185.6 |
| 2026-01-11T01:30 | 11.93073 | -117.02442 | 0.038 | 349.2 |
| 2026-01-11T01:40 | 11.93054 | -117.02438 | 0.070 | 168.1 |
| 2026-01-11T01:50 | 11.93050 | -117.02445 | 0.027 | 233.6 |
| 2026-01-11T02:00 | 11.93054 | -117.02440 | 0.020 | 47.4 |
| 2026-01-11T02:10 | 11.93054 | -117.02434 | 0.022 | 85.2 |
| 2026-01-11T02:20 | 11.93086 | -117.02431 | 0.114 | 5.9 |
| 2026-01-11T02:30 | 11.93094 | -117.02461 | 0.110 | 285.9 |
| 2026-01-11T02:40 | 11.93088 | -117.02462 | 0.021 | 192.9 |
| 2026-01-11T02:50 | 11.93110 | -117.02462 | 0.076 | 0.8 |
| 2026-01-11T03:00 | 11.93093 | -117.02484 | 0.099 | 232.9 |
| 2026-01-11T03:10 | 11.93122 | -117.02496 | 0.111 | 338.9 |
| 2026-01-11T03:20 | 11.93125 | -117.02496 | 0.011 | 351.0 |
| 2026-01-11T03:30 | 11.93127 | -117.02497 | 0.010 | 331.9 |
| 2026-01-11T03:40 | 11.93121 | -117.02502 | 0.026 | 215.7 |
| 2026-01-11T03:50 | 11.93123 | -117.02501 | 0.005 | 41.8 |
| 2026-01-11T04:00 | 11.93128 | -117.02497 | 0.023 | 34.3 |
| 2026-01-11T04:10 | 11.93128 | -117.02503 | 0.020 | 275.1 |
| 2026-01-11T04:20 | 11.93130 | -117.02506 | 0.014 | 290.5 |
| 2026-01-11T04:30 | 11.93134 | -117.02512 | 0.025 | 304.3 |
| 2026-01-11T04:40 | 11.93137 | -117.02511 | 0.014 | 15.9 |
| 2026-01-11T04:50 | 11.93133 | -117.02511 | 0.015 | 174.8 |
| 2026-01-11T05:00 | 11.93132 | -117.02501 | 0.034 | 96.6 |
| 2026-01-11T05:10 | 11.93129 | -117.02503 | 0.014 | 206.2 |
| 2026-01-11T05:20 | 11.93134 | -117.02511 | 0.035 | 300.9 |
| 2026-01-11T05:30 | 11.93132 | -117.02519 | 0.027 | 257.0 |
| 2026-01-11T05:40 | 11.93130 | -117.02537 | 0.066 | 265.0 |
| 2026-01-11T05:50 | 11.93129 | -117.02536 | 0.006 | 123.1 |
| 2026-01-11T06:00 | 11.93135 | -117.02537 | 0.021 | 352.1 |
| 2026-01-11T06:10 | 11.93139 | -117.02547 | 0.037 | 291.5 |
| 2026-01-11T06:20 | 11.93132 | -117.02558 | 0.046 | 239.1 |
| 2026-01-11T06:30 | 11.93134 | -117.02559 | 0.007 | 327.5 |
| 2026-01-11T06:40 | 11.93128 | -117.02559 | 0.020 | 181.0 |
| 2026-01-11T06:50 | 11.93136 | -117.02564 | 0.033 | 327.9 |
| 2026-01-11T07:00 | 11.93148 | -117.02559 | 0.047 | 22.1 |
| 2026-01-11T07:10 | 11.93145 | -117.02557 | 0.014 | 150.6 |
| 2026-01-11T07:20 | 11.93142 | -117.02563 | 0.023 | 243.5 |
| 2026-01-11T07:30 | 11.93147 | -117.02558 | 0.026 | 44.6 |
| 2026-01-11T07:40 | 11.93140 | -117.02560 | 0.025 | 202.2 |
| 2026-01-11T07:50 | 11.93135 | -117.02547 | 0.051 | 111.2 |
| 2026-01-11T08:00 | 11.93143 | -117.02548 | 0.029 | 349.7 |
| 2026-01-11T08:10 | 11.93138 | -117.02544 | 0.025 | 138.9 |
| 2026-01-11T08:20 | 11.93142 | -117.02543 | 0.014 | 10.3 |
| 2026-01-11T08:30 | 11.93141 | -117.02548 | 0.018 | 258.7 |
| 2026-01-11T08:40 | 11.93125 | -117.02525 | 0.097 | 124.6 |
| 2026-01-11T08:50 | 11.93060 | -117.02468 | 0.309 | 139.4 |
| 2026-01-11T09:00 | 11.93062 | -117.02465 | 0.016 | 54.8 |
| 2026-01-11T09:10 | 11.93054 | -117.02481 | 0.064 | 241.1 |
| 2026-01-11T09:20 | 11.93070 | -117.02522 | 0.156 | 291.7 |
| 2026-01-11T09:30 | 11.93068 | -117.02526 | 0.015 | 249.2 |
| 2026-01-11T09:40 | 11.93079 | -117.02525 | 0.039 | 3.1 |
| 2026-01-11T09:50 | 11.93068 | -117.02525 | 0.039 | 179.0 |
| 2026-01-11T10:00 | 11.93070 | -117.02524 | 0.008 | 10.6 |
| 2026-01-11T10:10 | 11.93070 | -117.02525 | 0.002 | 247.9 |
| 2026-01-11T10:20 | 11.93068 | -117.02527 | 0.010 | 221.7 |
| 2026-01-11T10:30 | 11.93072 | -117.02527 | 0.015 | 350.5 |
| 2026-01-11T10:40 | 11.93072 | -117.02523 | 0.016 | 98.8 |
| 2026-01-11T10:50 | 11.93073 | -117.02530 | 0.025 | 282.6 |
| 2026-01-11T11:00 | 11.93071 | -117.02531 | 0.009 | 227.9 |
| 2026-01-11T11:10 | 11.93073 | -117.02499 | 0.113 | 86.9 |
| 2026-01-11T11:20 | 11.93074 | -117.02457 | 0.149 | 89.3 |
| 2026-01-11T11:30 | 11.93071 | -117.02400 | 0.203 | 92.6 |
| 2026-01-11T11:40 | 11.93073 | -117.02376 | 0.083 | 85.5 |
| 2026-01-11T11:50 | 11.93074 | -117.02379 | 0.010 | 298.7 |
| 2026-01-11T12:00 | 11.93074 | -117.02375 | 0.012 | 90.0 |
| 2026-01-11T12:10 | 11.93070 | -117.02374 | 0.018 | 157.3 |
| 2026-01-11T12:20 | 11.93072 | -117.02376 | 0.014 | 312.2 |
| 2026-01-11T12:30 | 11.93066 | -117.02374 | 0.024 | 155.0 |
| 2026-01-11T12:40 | 11.93069 | -117.02372 | 0.010 | 21.5 |
| 2026-01-11T12:50 | 11.93072 | -117.02374 | 0.014 | 340.9 |
| 2026-01-11T13:00 | 11.93073 | -117.02376 | 0.008 | 286.2 |
| 2026-01-11T13:10 | 11.93068 | -117.02374 | 0.020 | 160.2 |
| 2026-01-11T13:20 | 11.93071 | -117.02378 | 0.018 | 304.4 |
| 2026-01-11T13:30 | 11.93068 | -117.02372 | 0.025 | 111.8 |
| 2026-01-11T13:40 | 11.93071 | -117.02379 | 0.028 | 295.3 |
| 2026-01-11T13:50 | 11.93065 | -117.02372 | 0.035 | 133.8 |
| 2026-01-11T14:00 | 11.93066 | -117.02375 | 0.014 | 292.4 |
| 2026-01-11T14:10 | 11.93067 | -117.02372 | 0.011 | 63.9 |
| 2026-01-11T14:20 | 11.93056 | -117.02359 | 0.063 | 131.3 |
| 2026-01-11T14:30 | 11.93025 | -117.02338 | 0.131 | 146.0 |
| 2026-01-11T14:40 | 11.92976 | -117.02368 | 0.204 | 210.7 |
| 2026-01-11T14:50 | 11.92974 | -117.02416 | 0.171 | 266.9 |
| 2026-01-11T15:00 | 11.92970 | -117.02486 | 0.247 | 267.1 |
| 2026-01-11T15:10 | 11.92968 | -117.02493 | 0.027 | 253.2 |
| 2026-01-11T15:20 | 11.92970 | -117.02492 | 0.008 | 23.9 |
| 2026-01-11T15:30 | 11.92969 | -117.02490 | 0.010 | 124.1 |
| 2026-01-11T15:40 | 11.92967 | -117.02485 | 0.018 | 109.1 |
| 2026-01-11T15:50 | 11.92970 | -117.02493 | 0.030 | 292.6 |
| 2026-01-11T16:00 | 11.92962 | -117.02490 | 0.032 | 158.4 |
| 2026-01-11T16:10 | 11.92964 | -117.02495 | 0.020 | 295.5 |
| 2026-01-11T16:20 | 11.92960 | -117.02492 | 0.018 | 150.8 |
| 2026-01-11T16:30 | 11.92969 | -117.02497 | 0.038 | 333.8 |
| 2026-01-11T16:40 | 11.92965 | -117.02491 | 0.026 | 128.7 |
| 2026-01-11T16:50 | 11.92964 | -117.02495 | 0.012 | 250.2 |
| 2026-01-11T17:00 | 11.92970 | -117.02497 | 0.025 | 335.6 |
| 2026-01-11T17:10 | 11.92979 | -117.02527 | 0.109 | 286.3 |
| 2026-01-11T17:20 | 11.92985 | -117.02519 | 0.037 | 50.7 |
| 2026-01-11T17:30 | 11.92980 | -117.02527 | 0.034 | 234.9 |
| 2026-01-11T17:40 | 11.92988 | -117.02523 | 0.034 | 26.2 |
| 2026-01-11T17:50 | 11.92982 | -117.02519 | 0.027 | 149.0 |
| 2026-01-11T18:00 | 11.92985 | -117.02524 | 0.024 | 301.5 |
| 2026-01-11T18:10 | 11.92982 | -117.02526 | 0.011 | 207.8 |
| 2026-01-11T18:20 | 11.93041 | -117.02465 | 0.300 | 45.9 |
| 2026-01-11T18:30 | 11.93066 | -117.02443 | 0.120 | 40.1 |
| 2026-01-11T18:40 | 11.93075 | -117.02438 | 0.034 | 26.7 |
| 2026-01-11T18:50 | 11.93070 | -117.02435 | 0.020 | 147.0 |
| 2026-01-11T19:00 | 11.93074 | -117.02439 | 0.018 | 316.2 |
| 2026-01-11T19:10 | 11.93075 | -117.02436 | 0.011 | 63.1 |
| 2026-01-11T19:20 | 11.93067 | -117.02440 | 0.033 | 202.9 |
| 2026-01-11T19:30 | 11.93067 | -117.02435 | 0.016 | 90.0 |
| 2026-01-11T19:40 | 11.93061 | -117.02441 | 0.029 | 224.6 |
| 2026-01-11T19:50 | 11.93066 | -117.02443 | 0.017 | 334.3 |
| 2026-01-11T20:00 | 11.93067 | -117.02439 | 0.016 | 68.8 |
| 2026-01-11T20:10 | 11.93077 | -117.02465 | 0.098 | 290.9 |
| 2026-01-11T20:20 | 11.93096 | -117.02492 | 0.116 | 305.8 |
| 2026-01-11T20:30 | 11.93106 | -117.02502 | 0.051 | 311.7 |
| 2026-01-11T20:40 | 11.93103 | -117.02504 | 0.013 | 215.5 |
| 2026-01-11T20:50 | 11.93106 | -117.02505 | 0.011 | 345.7 |
| 2026-01-11T21:00 | 11.93111 | -117.02509 | 0.022 | 325.9 |
| 2026-01-11T21:10 | 11.93110 | -117.02511 | 0.008 | 239.6 |
| 2026-01-11T21:20 | 11.93109 | -117.02507 | 0.014 | 105.3 |
| 2026-01-11T21:30 | 11.93104 | -117.02503 | 0.021 | 137.5 |
| 2026-01-11T21:40 | 11.93103 | -117.02506 | 0.011 | 241.4 |
| 2026-01-11T21:50 | 11.93105 | -117.02509 | 0.015 | 296.9 |
| 2026-01-11T22:00 | 11.93103 | -117.02510 | 0.005 | 216.4 |
| 2026-01-11T22:10 | 11.93107 | -117.02505 | 0.023 | 60.3 |
| 2026-01-11T22:20 | 11.93110 | -117.02507 | 0.015 | 319.2 |
| 2026-01-11T22:30 | 11.93102 | -117.02505 | 0.031 | 164.1 |
| 2026-01-11T22:40 | 11.93111 | -117.02508 | 0.034 | 343.3 |
| 2026-01-11T22:50 | 11.93110 | -117.02506 | 0.007 | 105.0 |
| 2026-01-11T23:00 | 11.93108 | -117.02504 | 0.011 | 149.7 |
| 2026-01-11T23:10 | 11.93100 | -117.02504 | 0.026 | 179.2 |
| 2026-01-11T23:20 | 11.93109 | -117.02509 | 0.035 | 331.2 |
| 2026-01-11T23:30 | 11.93110 | -117.02508 | 0.005 | 64.9 |
| 2026-01-11T23:40 | 11.93112 | -117.02476 | 0.111 | 86.1 |
| 2026-01-11T23:50 | 11.93121 | -117.02473 | 0.037 | 19.8 |
| 2026-01-12T00:00 | 11.93117 | -117.02463 | 0.039 | 115.0 |
| 2026-01-12T00:10 | 11.93125 | -117.02464 | 0.028 | 354.2 |
| 2026-01-12T00:20 | 11.93125 | -117.02462 | 0.005 | 61.3 |
| 2026-01-12T00:30 | 11.93118 | -117.02456 | 0.036 | 138.3 |
| 2026-01-12T00:40 | 11.93109 | -117.02447 | 0.043 | 137.1 |
| 2026-01-12T00:50 | 11.93091 | -117.02422 | 0.110 | 126.0 |
| 2026-01-12T01:00 | 11.93088 | -117.02423 | 0.012 | 190.5 |
| 2026-01-12T01:10 | 11.93087 | -117.02424 | 0.004 | 251.3 |
| 2026-01-12T01:20 | 11.93092 | -117.02426 | 0.018 | 340.4 |
| 2026-01-12T01:30 | 11.93089 | -117.02421 | 0.020 | 126.1 |
| 2026-01-12T01:40 | 11.93085 | -117.02425 | 0.018 | 229.5 |
| 2026-01-12T01:50 | 11.93092 | -117.02426 | 0.024 | 351.4 |
| 2026-01-12T02:00 | 11.93085 | -117.02428 | 0.026 | 199.2 |
| 2026-01-12T02:10 | 11.93086 | -117.02425 | 0.013 | 78.5 |
| 2026-01-12T02:20 | 11.93087 | -117.02422 | 0.009 | 73.5 |
| 2026-01-12T02:30 | 11.93089 | -117.02422 | 0.008 | 357.3 |
| 2026-01-12T02:40 | 11.93084 | -117.02424 | 0.019 | 200.9 |
| 2026-01-12T02:50 | 11.93087 | -117.02423 | 0.012 | 25.5 |
| 2026-01-12T03:00 | 11.93087 | -117.02420 | 0.011 | 82.8 |
| 2026-01-12T03:10 | 11.93087 | -117.02426 | 0.021 | 271.0 |
| 2026-01-12T03:20 | 11.93089 | -117.02425 | 0.007 | 5.9 |
| 2026-01-12T03:30 | 11.93092 | -117.02425 | 0.009 | 14.4 |
| 2026-01-12T03:40 | 11.93093 | -117.02425 | 0.004 | 11.1 |
| 2026-01-12T03:50 | 11.93093 | -117.02421 | 0.013 | 80.1 |
| 2026-01-12T04:00 | 11.93084 | -117.02430 | 0.045 | 223.6 |
| 2026-01-12T04:10 | 11.93083 | -117.02423 | 0.026 | 100.2 |
| 2026-01-12T04:20 | 11.93094 | -117.02421 | 0.041 | 4.9 |
| 2026-01-12T04:30 | 11.93087 | -117.02447 | 0.094 | 252.7 |
| 2026-01-12T04:40 | 11.93085 | -117.02463 | 0.058 | 264.7 |
| 2026-01-12T04:50 | 11.93087 | -117.02455 | 0.031 | 78.7 |
| 2026-01-12T05:00 | 11.93087 | -117.02454 | 0.005 | 94.5 |
| 2026-01-12T05:10 | 11.93086 | -117.02452 | 0.005 | 115.1 |
| 2026-01-12T05:20 | 11.93086 | -117.02452 | 0.001 | 198.2 |
| 2026-01-12T05:30 | 11.93102 | -117.02445 | 0.062 | 25.5 |
| 2026-01-12T05:40 | 11.93121 | -117.02440 | 0.074 | 13.3 |
| 2026-01-12T05:50 | 11.93128 | -117.02443 | 0.026 | 336.6 |
| 2026-01-12T06:00 | 11.93156 | -117.02457 | 0.113 | 333.6 |
| 2026-01-12T06:10 | 11.93177 | -117.02475 | 0.096 | 319.5 |
| 2026-01-12T06:20 | 11.93217 | -117.02509 | 0.188 | 319.8 |
| 2026-01-12T06:30 | 11.93216 | -117.02508 | 0.004 | 145.4 |
| 2026-01-12T06:40 | 11.93216 | -117.02513 | 0.017 | 271.2 |
| 2026-01-12T06:50 | 11.93219 | -117.02512 | 0.011 | 14.7 |
| 2026-01-12T07:00 | 11.93220 | -117.02509 | 0.012 | 58.3 |
| 2026-01-12T07:10 | 11.93217 | -117.02505 | 0.020 | 129.6 |
| 2026-01-12T07:20 | 11.93209 | -117.02512 | 0.036 | 221.4 |
| 2026-01-12T07:30 | 11.93222 | -117.02507 | 0.047 | 21.2 |
| 2026-01-12T07:40 | 11.93213 | -117.02506 | 0.032 | 175.0 |
| 2026-01-12T07:50 | 11.93192 | -117.02491 | 0.093 | 144.3 |
| 2026-01-12T08:00 | 11.93164 | -117.02473 | 0.119 | 147.3 |
| 2026-01-12T08:10 | 11.93129 | -117.02459 | 0.136 | 158.3 |
| 2026-01-12T08:20 | 11.93082 | -117.02445 | 0.175 | 163.6 |
| 2026-01-12T08:30 | 11.93058 | -117.02436 | 0.091 | 160.6 |
| 2026-01-12T08:40 | 11.93045 | -117.02432 | 0.048 | 163.3 |
| 2026-01-12T08:50 | 11.93046 | -117.02432 | 0.004 | 354.9 |
| 2026-01-12T09:00 | 11.93045 | -117.02436 | 0.015 | 251.3 |
| 2026-01-12T09:10 | 11.93043 | -117.02434 | 0.010 | 135.4 |
| 2026-01-12T09:20 | 11.93024 | -117.02419 | 0.086 | 141.5 |
| 2026-01-12T09:30 | 11.92959 | -117.02367 | 0.295 | 141.6 |
| 2026-01-12T09:40 | 11.92893 | -117.02249 | 0.481 | 119.5 |
| 2026-01-12T09:50 | 11.92841 | -117.02147 | 0.406 | 117.7 |
| 2026-01-12T10:00 | 11.92801 | -117.02071 | 0.304 | 117.8 |
| 2026-01-12T10:10 | 11.92760 | -117.01998 | 0.296 | 119.5 |
| 2026-01-12T10:20 | 11.92717 | -117.01918 | 0.319 | 119.1 |
| 2026-01-12T10:30 | 11.92681 | -117.01845 | 0.289 | 116.3 |
| 2026-01-12T10:40 | 11.92642 | -117.01770 | 0.299 | 118.0 |
| 2026-01-12T10:50 | 11.92602 | -117.01697 | 0.296 | 118.9 |
| 2026-01-12T11:00 | 11.92563 | -117.01620 | 0.304 | 117.7 |
| 2026-01-12T11:10 | 11.92524 | -117.01546 | 0.298 | 118.0 |
| 2026-01-12T11:20 | 11.92485 | -117.01470 | 0.301 | 117.7 |
| 2026-01-12T11:30 | 11.92445 | -117.01397 | 0.296 | 118.9 |
| 2026-01-12T11:40 | 11.92405 | -117.01320 | 0.304 | 117.5 |
| 2026-01-12T11:50 | 11.92367 | -117.01245 | 0.299 | 117.2 |
| 2026-01-12T12:00 | 11.92327 | -117.01169 | 0.303 | 118.4 |
| 2026-01-12T12:10 | 11.92289 | -117.01093 | 0.301 | 116.8 |
| 2026-01-12T12:20 | 11.92247 | -117.01018 | 0.304 | 119.7 |
| 2026-01-12T12:30 | 11.92211 | -117.00943 | 0.296 | 116.0 |
| 2026-01-12T12:40 | 11.92169 | -117.00868 | 0.302 | 119.7 |
| 2026-01-12T12:50 | 11.92131 | -117.00794 | 0.295 | 117.6 |
| 2026-01-12T13:00 | 11.92106 | -117.00742 | 0.205 | 115.9 |
| 2026-01-12T13:10 | 11.92083 | -117.00743 | 0.082 | 182.9 |
| 2026-01-12T13:20 | 11.92086 | -117.00747 | 0.016 | 310.9 |
| 2026-01-12T13:30 | 11.92082 | -117.00746 | 0.014 | 174.1 |
Only the first 2000 rows were shown. To view the complete dataset, download it as tab-delimited text. You can still view the full matrix in your browser, but be aware that this may crash the browser due to the huge size.
